FDX9047 LFPG-KIND
Flight info
| Callsign | FDX9047 |
|---|---|
| Flight time | 8h 22m |
| Altitude | 32000 |
| Route | ELCOB UT300 SENLO DCT JSY DCT LIZAD DCT LESLU DCT MALOT/M083F340 DCT 54N020W 54N030W 54N040W 53N050W DCT RIKAL/N0482F340 N576B ANATI/N0472F360 Q812 OBTEK DCT PENTU Q824 MENKO Q802 DERLO Q907 SVM DCT SJAAY SNKPT2 |
| Aircraft | B77L/H-SDE1E2E3FGHIJ2J3J4J5M1RWXY/LB1D1 |
Departure
| Time | 2026-05-05 03:38 |
|---|---|
| Airport | Charles de Gaulle International Airport (LFPG) |
Arrival
| Time | 2026-05-05 12:00 |
|---|---|
| Airport | Indianapolis International Airport (KIND) |
| Time | Latitude | Longitude | Altitude | Speed | Heading |
|---|---|---|---|---|---|
| 2026-05-05 03:15 | 49.01153 | 2.50569 | 365 ft | 0 kts | 84° |
| 2026-05-05 03:30 | 49.01153 | 2.50561 | 366 ft | 4 kts | 84° |
| 2026-05-05 03:30 | 49.01150 | 2.50520 | 364 ft | 4 kts | 85° |
| 2026-05-05 03:31 | 49.01148 | 2.50480 | 359 ft | 4 kts | 76° |
| 2026-05-05 03:31 | 49.01138 | 2.50443 | 368 ft | 4 kts | 51° |
| 2026-05-05 03:31 | 49.01118 | 2.50418 | 366 ft | 4 kts | 15° |
| 2026-05-05 03:31 | 49.01103 | 2.50415 | 366 ft | 1 kts | 355° |
| 2026-05-05 03:32 | 49.01100 | 2.50415 | 366 ft | 0 kts | 355° |
| 2026-05-05 03:34 | 49.01134 | 2.50411 | 368 ft | 11 kts | 355° |
| 2026-05-05 03:34 | 49.01250 | 2.50398 | 365 ft | 21 kts | 356° |
| 2026-05-05 03:34 | 49.01398 | 2.50397 | 363 ft | 20 kts | 20° |
| 2026-05-05 03:34 | 49.01438 | 2.50548 | 362 ft | 17 kts | 88° |
| 2026-05-05 03:35 | 49.01447 | 2.50749 | 361 ft | 22 kts | 85° |
| 2026-05-05 03:35 | 49.01461 | 2.51009 | 361 ft | 26 kts | 85° |
| 2026-05-05 03:35 | 49.01496 | 2.51264 | 368 ft | 20 kts | 45° |
| 2026-05-05 03:35 | 49.01628 | 2.51285 | 360 ft | 20 kts | 354° |
| 2026-05-05 03:36 | 49.01765 | 2.51271 | 359 ft | 20 kts | 356° |
| 2026-05-05 03:36 | 49.01913 | 2.51251 | 361 ft | 21 kts | 357° |
| 2026-05-05 03:36 | 49.02040 | 2.51350 | 368 ft | 21 kts | 50° |
| 2026-05-05 03:36 | 49.02083 | 2.51665 | 361 ft | 50 kts | 84° |
| 2026-05-05 03:37 | 49.02127 | 2.52507 | 361 ft | 107 kts | 85° |
| 2026-05-05 03:37 | 49.02203 | 2.53896 | 358 ft | 154 kts | 85° |
| 2026-05-05 03:37 | 49.02311 | 2.55661 | 513 ft | 172 kts | 82° |
| 2026-05-05 03:37 | 49.02406 | 2.57532 | 830 ft | 179 kts | 85° |
| 2026-05-05 03:38 | 49.02499 | 2.59464 | 1218 ft | 185 kts | 84° |
| 2026-05-05 03:38 | 49.02602 | 2.61434 | 1631 ft | 192 kts | 84° |
| 2026-05-05 03:38 | 49.02718 | 2.63565 | 1825 ft | 211 kts | 84° |
| 2026-05-05 03:38 | 49.02850 | 2.65906 | 2058 ft | 230 kts | 85° |
| 2026-05-05 03:39 | 49.02979 | 2.68396 | 2484 ft | 241 kts | 85° |
| 2026-05-05 03:39 | 49.03113 | 2.70992 | 2975 ft | 249 kts | 85° |
| 2026-05-05 03:39 | 49.03448 | 2.73583 | 3417 ft | 255 kts | 62° |
| 2026-05-05 03:39 | 49.04633 | 2.75576 | 3961 ft | 259 kts | 31° |
| 2026-05-05 03:40 | 49.06342 | 2.76394 | 4645 ft | 261 kts | 3° |
| 2026-05-05 03:40 | 49.08138 | 2.75920 | 5236 ft | 268 kts | 336° |
| 2026-05-05 03:40 | 49.09632 | 2.74211 | 5803 ft | 274 kts | 308° |
| 2026-05-05 03:40 | 49.10433 | 2.71566 | 6366 ft | 280 kts | 279° |
| 2026-05-05 03:41 | 49.10544 | 2.68602 | 6898 ft | 283 kts | 269° |
| 2026-05-05 03:41 | 49.10455 | 2.65601 | 7484 ft | 282 kts | 262° |
| 2026-05-05 03:41 | 49.09841 | 2.62742 | 7859 ft | 287 kts | 242° |
| 2026-05-05 03:41 | 49.08954 | 2.59988 | 8372 ft | 291 kts | 245° |
| 2026-05-05 03:42 | 49.08131 | 2.57160 | 9037 ft | 291 kts | 246° |
| 2026-05-05 03:42 | 49.07329 | 2.54300 | 9576 ft | 296 kts | 246° |
| 2026-05-05 03:42 | 49.06522 | 2.51400 | 10179 ft | 297 kts | 246° |
| 2026-05-05 03:42 | 49.05699 | 2.48444 | 10479 ft | 312 kts | 246° |
| 2026-05-05 03:43 | 49.04826 | 2.45301 | 10650 ft | 332 kts | 246° |
| 2026-05-05 03:43 | 49.03898 | 2.41966 | 10787 ft | 352 kts | 246° |
| 2026-05-05 03:43 | 49.02917 | 2.38444 | 10987 ft | 370 kts | 246° |
| 2026-05-05 03:43 | 49.02118 | 2.34702 | 11264 ft | 377 kts | 263° |
| 2026-05-05 03:44 | 49.02130 | 2.30702 | 11735 ft | 381 kts | 273° |
| 2026-05-05 03:44 | 49.02258 | 2.26626 | 12330 ft | 388 kts | 271° |
| 2026-05-05 03:44 | 49.02342 | 2.22504 | 13205 ft | 389 kts | 270° |
| 2026-05-05 03:44 | 49.02407 | 2.18364 | 13932 ft | 394 kts | 270° |
| 2026-05-05 03:45 | 49.02464 | 2.14162 | 14566 ft | 399 kts | 270° |
| 2026-05-05 03:45 | 49.02515 | 2.09917 | 15245 ft | 402 kts | 270° |
| 2026-05-05 03:45 | 49.02564 | 2.05642 | 15928 ft | 405 kts | 270° |
| 2026-05-05 03:45 | 49.02612 | 2.01330 | 16585 ft | 409 kts | 270° |
| 2026-05-05 03:46 | 49.02657 | 1.96964 | 17226 ft | 414 kts | 270° |
| 2026-05-05 03:46 | 49.02702 | 1.92566 | 17851 ft | 418 kts | 269° |
| 2026-05-05 03:46 | 49.02746 | 1.88128 | 18450 ft | 422 kts | 269° |
| 2026-05-05 03:46 | 49.02788 | 1.83630 | 19009 ft | 425 kts | 269° |
| 2026-05-05 03:47 | 49.02830 | 1.79120 | 19591 ft | 427 kts | 269° |
| 2026-05-05 03:47 | 49.02869 | 1.74575 | 20154 ft | 431 kts | 269° |
| 2026-05-05 03:47 | 49.02907 | 1.69986 | 20660 ft | 435 kts | 269° |
| 2026-05-05 03:47 | 49.02944 | 1.65359 | 21205 ft | 438 kts | 269° |
| 2026-05-05 03:48 | 49.02979 | 1.60700 | 21773 ft | 441 kts | 269° |
| 2026-05-05 03:48 | 49.03012 | 1.56013 | 22321 ft | 444 kts | 269° |
| 2026-05-05 03:48 | 49.03044 | 1.51284 | 22857 ft | 448 kts | 269° |
| 2026-05-05 03:48 | 49.03074 | 1.46525 | 23383 ft | 451 kts | 268° |
| 2026-05-05 03:49 | 49.03103 | 1.41733 | 23844 ft | 454 kts | 268° |
| 2026-05-05 03:49 | 49.03130 | 1.36911 | 24313 ft | 456 kts | 268° |
| 2026-05-05 03:49 | 49.03155 | 1.32075 | 24800 ft | 458 kts | 268° |
| 2026-05-05 03:49 | 49.03178 | 1.27208 | 25185 ft | 462 kts | 268° |
| 2026-05-05 03:50 | 49.03199 | 1.22292 | 25590 ft | 465 kts | 268° |
| 2026-05-05 03:50 | 49.03263 | 1.17419 | 26044 ft | 467 kts | 269° |
| 2026-05-05 03:50 | 49.03406 | 1.12462 | 26521 ft | 469 kts | 270° |
| 2026-05-05 03:50 | 49.03579 | 1.07487 | 26964 ft | 471 kts | 270° |
| 2026-05-05 03:51 | 49.03760 | 1.02422 | 27386 ft | 474 kts | 270° |
| 2026-05-05 03:51 | 49.03929 | 0.97462 | 27786 ft | 476 kts | 269° |
| 2026-05-05 03:51 | 49.04090 | 0.92415 | 28185 ft | 478 kts | 269° |
| 2026-05-05 03:51 | 49.04242 | 0.87335 | 28604 ft | 480 kts | 269° |
| 2026-05-05 03:52 | 49.04389 | 0.82241 | 28949 ft | 483 kts | 268° |
| 2026-05-05 03:52 | 49.04531 | 0.77106 | 29279 ft | 486 kts | 268° |
| 2026-05-05 03:52 | 49.04670 | 0.71960 | 29675 ft | 486 kts | 268° |
| 2026-05-05 03:52 | 49.04808 | 0.66829 | 30175 ft | 484 kts | 267° |
| 2026-05-05 03:53 | 49.04945 | 0.61720 | 30691 ft | 480 kts | 267° |
| 2026-05-05 03:53 | 49.05079 | 0.56653 | 31158 ft | 477 kts | 267° |
| 2026-05-05 03:53 | 49.05208 | 0.51606 | 31561 ft | 476 kts | 267° |
| 2026-05-05 03:53 | 49.05335 | 0.46560 | 31864 ft | 477 kts | 267° |
| 2026-05-05 03:54 | 49.05580 | 0.36395 | 31910 ft | 481 kts | 267° |
| 2026-05-05 03:54 | 49.05823 | 0.26242 | 31910 ft | 478 kts | 267° |
| 2026-05-05 03:55 | 49.06054 | 0.16147 | 31920 ft | 475 kts | 267° |
| 2026-05-05 03:55 | 49.06274 | 0.06083 | 31917 ft | 475 kts | 266° |
| 2026-05-05 03:56 | 49.06485 | -0.03994 | 31940 ft | 478 kts | 266° |
| 2026-05-05 03:56 | 49.06690 | -0.14204 | 31942 ft | 485 kts | 267° |
| 2026-05-05 03:57 | 49.06890 | -0.24432 | 31934 ft | 486 kts | 266° |
| 2026-05-05 03:57 | 49.07081 | -0.34719 | 31936 ft | 485 kts | 266° |
| 2026-05-05 03:58 | 49.07264 | -0.44995 | 31937 ft | 484 kts | 266° |
| 2026-05-05 03:58 | 49.07438 | -0.55260 | 31934 ft | 484 kts | 266° |
| 2026-05-05 03:59 | 49.07601 | -0.65499 | 31946 ft | 483 kts | 266° |
| 2026-05-05 03:59 | 49.07729 | -0.73863 | 31931 ft | 482 kts | 266° |
| 2026-05-05 04:00 | 49.07877 | -0.84080 | 31929 ft | 481 kts | 266° |
| 2026-05-05 04:00 | 49.08015 | -0.94287 | 31937 ft | 482 kts | 266° |
| 2026-05-05 04:01 | 49.08146 | -1.04504 | 31934 ft | 482 kts | 266° |
| 2026-05-05 04:01 | 49.08296 | -1.14740 | 31930 ft | 484 kts | 269° |
| 2026-05-05 04:02 | 49.09344 | -1.24947 | 31935 ft | 491 kts | 280° |
| 2026-05-05 04:02 | 49.11050 | -1.35060 | 31957 ft | 492 kts | 281° |
| 2026-05-05 04:03 | 49.12728 | -1.45198 | 31947 ft | 493 kts | 280° |
| 2026-05-05 04:03 | 49.14366 | -1.55373 | 31947 ft | 494 kts | 280° |
| 2026-05-05 04:04 | 49.15983 | -1.65558 | 31950 ft | 494 kts | 280° |
| 2026-05-05 04:04 | 49.17595 | -1.75763 | 31954 ft | 494 kts | 280° |
| 2026-05-05 04:05 | 49.19189 | -1.85911 | 31966 ft | 495 kts | 280° |
| 2026-05-05 04:05 | 49.20788 | -1.96143 | 31967 ft | 495 kts | 280° |
| 2026-05-05 04:06 | 49.22383 | -2.06383 | 31964 ft | 495 kts | 281° |
| 2026-05-05 04:06 | 49.24107 | -2.16589 | 31961 ft | 496 kts | 282° |
| 2026-05-05 04:07 | 49.25884 | -2.26773 | 31966 ft | 495 kts | 282° |
| 2026-05-05 04:07 | 49.27639 | -2.36975 | 31968 ft | 495 kts | 282° |
| 2026-05-05 04:08 | 49.29369 | -2.47185 | 31968 ft | 495 kts | 282° |
| 2026-05-05 04:08 | 49.31082 | -2.57392 | 31964 ft | 495 kts | 282° |
| 2026-05-05 04:09 | 49.32787 | -2.67611 | 31979 ft | 495 kts | 282° |
| 2026-05-05 04:09 | 49.34482 | -2.77822 | 31959 ft | 494 kts | 282° |
| 2026-05-05 04:10 | 49.36165 | -2.88018 | 31981 ft | 492 kts | 282° |
| 2026-05-05 04:10 | 49.37625 | -2.96918 | 31967 ft | 492 kts | 282° |
| 2026-05-05 04:11 | 49.39285 | -3.07094 | 31966 ft | 491 kts | 282° |
| 2026-05-05 04:11 | 49.40935 | -3.17269 | 31974 ft | 491 kts | 283° |
| 2026-05-05 04:12 | 49.42576 | -3.27449 | 31972 ft | 491 kts | 282° |
| 2026-05-05 04:12 | 49.44208 | -3.37634 | 31974 ft | 491 kts | 282° |
| 2026-05-05 04:13 | 49.45831 | -3.47829 | 31976 ft | 491 kts | 282° |
| 2026-05-05 04:13 | 49.47433 | -3.57955 | 31977 ft | 491 kts | 283° |
| 2026-05-05 04:14 | 49.49041 | -3.68179 | 31977 ft | 492 kts | 283° |
| 2026-05-05 04:14 | 49.50642 | -3.78427 | 31982 ft | 493 kts | 283° |
| 2026-05-05 04:15 | 49.52237 | -3.88698 | 31983 ft | 494 kts | 282° |
| 2026-05-05 04:15 | 49.53825 | -3.98987 | 31977 ft | 494 kts | 282° |
| 2026-05-05 04:16 | 49.55137 | -4.07541 | 31987 ft | 495 kts | 283° |
| 2026-05-05 04:16 | 49.56711 | -4.17859 | 31982 ft | 495 kts | 282° |
| 2026-05-05 04:17 | 49.58355 | -4.28156 | 31977 ft | 495 kts | 287° |
| 2026-05-05 04:17 | 49.61013 | -4.37936 | 31989 ft | 495 kts | 298° |
| 2026-05-05 04:18 | 49.64619 | -4.46975 | 31990 ft | 495 kts | 303° |
| 2026-05-05 04:18 | 49.68344 | -4.55912 | 31985 ft | 495 kts | 303° |
| 2026-05-05 04:19 | 49.72041 | -4.64886 | 31984 ft | 495 kts | 302° |
| 2026-05-05 04:19 | 49.75706 | -4.73890 | 32006 ft | 495 kts | 302° |
| 2026-05-05 04:20 | 49.79362 | -4.82928 | 31995 ft | 495 kts | 302° |
| 2026-05-05 04:20 | 49.83011 | -4.91981 | 31989 ft | 496 kts | 302° |
| 2026-05-05 04:21 | 49.86655 | -5.01046 | 32001 ft | 495 kts | 302° |
| 2026-05-05 04:21 | 49.90285 | -5.10105 | 32006 ft | 495 kts | 302° |
| 2026-05-05 04:22 | 49.93910 | -5.19184 | 32004 ft | 495 kts | 302° |
| 2026-05-05 04:22 | 49.97525 | -5.28269 | 31983 ft | 494 kts | 302° |
| 2026-05-05 04:23 | 50.01131 | -5.37365 | 31984 ft | 494 kts | 302° |
| 2026-05-05 04:23 | 50.04730 | -5.46472 | 32005 ft | 494 kts | 301° |
| 2026-05-05 04:24 | 50.08292 | -5.55520 | 32004 ft | 492 kts | 302° |
| 2026-05-05 04:25 | 50.13630 | -5.69135 | 32014 ft | 489 kts | 302° |
| 2026-05-05 04:25 | 50.17165 | -5.78189 | 32014 ft | 488 kts | 302° |
| 2026-05-05 04:26 | 50.20683 | -5.87234 | 32012 ft | 487 kts | 302° |
| 2026-05-05 04:26 | 50.24188 | -5.96274 | 32017 ft | 487 kts | 302° |
| 2026-05-05 04:27 | 50.27689 | -6.05339 | 32013 ft | 487 kts | 303° |
| 2026-05-05 04:27 | 50.31184 | -6.14417 | 32028 ft | 487 kts | 303° |
| 2026-05-05 04:28 | 50.34676 | -6.23515 | 32032 ft | 488 kts | 303° |
| 2026-05-05 04:28 | 50.38164 | -6.32641 | 32036 ft | 489 kts | 303° |
| 2026-05-05 04:29 | 50.41650 | -6.41791 | 32034 ft | 489 kts | 303° |
| 2026-05-05 04:29 | 50.45132 | -6.50963 | 32036 ft | 489 kts | 304° |
| 2026-05-05 04:30 | 50.48606 | -6.60150 | 32035 ft | 489 kts | 304° |
| 2026-05-05 04:30 | 50.52066 | -6.69329 | 32048 ft | 489 kts | 304° |
| 2026-05-05 04:31 | 50.55521 | -6.78527 | 32045 ft | 488 kts | 304° |
| 2026-05-05 04:31 | 50.58968 | -6.87739 | 32053 ft | 488 kts | 303° |
| 2026-05-05 04:32 | 50.62405 | -6.96956 | 32058 ft | 488 kts | 303° |
| 2026-05-05 04:32 | 50.65829 | -7.06168 | 32055 ft | 487 kts | 304° |
| 2026-05-05 04:33 | 50.69240 | -7.15384 | 32057 ft | 486 kts | 304° |
| 2026-05-05 04:33 | 50.72616 | -7.24536 | 32061 ft | 486 kts | 304° |
| 2026-05-05 04:34 | 50.76007 | -7.33758 | 32063 ft | 485 kts | 304° |
| 2026-05-05 04:34 | 50.79389 | -7.42991 | 32066 ft | 485 kts | 304° |
| 2026-05-05 04:35 | 50.82764 | -7.52239 | 32065 ft | 486 kts | 304° |
| 2026-05-05 04:35 | 50.86128 | -7.61491 | 32065 ft | 484 kts | 304° |
| 2026-05-05 04:36 | 50.89475 | -7.70728 | 32073 ft | 484 kts | 304° |
| 2026-05-05 04:36 | 50.92814 | -7.79977 | 32072 ft | 483 kts | 304° |
| 2026-05-05 04:37 | 50.96144 | -7.89235 | 32074 ft | 483 kts | 304° |
| 2026-05-05 04:37 | 50.99466 | -7.98500 | 32081 ft | 483 kts | 304° |
| 2026-05-05 04:38 | 51.02686 | -8.07875 | 32064 ft | 484 kts | 301° |
| 2026-05-05 04:38 | 51.05760 | -8.17373 | 32062 ft | 482 kts | 300° |
| 2026-05-05 04:39 | 51.08808 | -8.26841 | 32081 ft | 480 kts | 300° |
| 2026-05-05 04:39 | 51.11863 | -8.36281 | 32085 ft | 479 kts | 301° |
| 2026-05-05 04:40 | 51.14915 | -8.45704 | 32085 ft | 478 kts | 301° |
| 2026-05-05 04:40 | 51.17959 | -8.55128 | 32086 ft | 478 kts | 300° |
| 2026-05-05 04:41 | 51.20973 | -8.64497 | 32101 ft | 478 kts | 300° |
| 2026-05-05 04:41 | 51.23995 | -8.73931 | 32092 ft | 477 kts | 300° |
| 2026-05-05 04:42 | 51.27005 | -8.83363 | 32097 ft | 476 kts | 299° |
| 2026-05-05 04:42 | 51.30001 | -8.92790 | 32100 ft | 476 kts | 299° |
| 2026-05-05 04:43 | 51.32983 | -9.02209 | 32104 ft | 475 kts | 299° |
| 2026-05-05 04:43 | 51.35959 | -9.11644 | 32099 ft | 475 kts | 299° |
| 2026-05-05 04:44 | 51.38924 | -9.21078 | 32111 ft | 474 kts | 298° |
| 2026-05-05 04:44 | 51.41876 | -9.30509 | 32110 ft | 473 kts | 298° |
| 2026-05-05 04:45 | 51.44816 | -9.39938 | 32111 ft | 472 kts | 298° |
| 2026-05-05 04:45 | 51.47743 | -9.49363 | 32114 ft | 472 kts | 298° |
| 2026-05-05 04:46 | 51.50660 | -9.58791 | 32118 ft | 471 kts | 298° |
| 2026-05-05 04:46 | 51.53566 | -9.68217 | 32121 ft | 471 kts | 297° |
| 2026-05-05 04:47 | 51.56463 | -9.77654 | 32119 ft | 471 kts | 297° |
| 2026-05-05 04:47 | 51.59349 | -9.87090 | 32118 ft | 470 kts | 297° |
| 2026-05-05 04:48 | 51.62221 | -9.96520 | 32118 ft | 469 kts | 297° |
| 2026-05-05 04:48 | 51.65082 | -10.05947 | 32121 ft | 469 kts | 296° |
| 2026-05-05 04:49 | 51.67934 | -10.15384 | 32126 ft | 468 kts | 296° |
| 2026-05-05 04:49 | 51.70779 | -10.24830 | 32124 ft | 468 kts | 296° |
| 2026-05-05 04:50 | 51.73612 | -10.34277 | 32125 ft | 468 kts | 296° |
| 2026-05-05 04:50 | 51.76442 | -10.43749 | 32129 ft | 469 kts | 296° |
| 2026-05-05 04:51 | 51.79265 | -10.53239 | 32129 ft | 469 kts | 296° |
| 2026-05-05 04:51 | 51.82084 | -10.62746 | 32135 ft | 469 kts | 295° |
| 2026-05-05 04:52 | 51.84893 | -10.72264 | 32128 ft | 469 kts | 295° |
| 2026-05-05 04:52 | 51.87673 | -10.81719 | 32132 ft | 467 kts | 295° |
| 2026-05-05 04:53 | 51.90454 | -10.91216 | 32135 ft | 466 kts | 295° |
| 2026-05-05 04:53 | 51.93221 | -11.00701 | 32140 ft | 465 kts | 295° |
| 2026-05-05 04:54 | 51.95972 | -11.10170 | 32139 ft | 465 kts | 295° |
| 2026-05-05 04:54 | 51.98717 | -11.19657 | 32139 ft | 465 kts | 295° |
| 2026-05-05 04:55 | 52.01455 | -11.29157 | 32146 ft | 465 kts | 295° |
| 2026-05-05 04:55 | 52.04185 | -11.38670 | 32137 ft | 464 kts | 295° |
| 2026-05-05 04:56 | 52.06907 | -11.48186 | 32148 ft | 464 kts | 295° |
| 2026-05-05 04:56 | 52.09620 | -11.57714 | 32144 ft | 464 kts | 295° |
| 2026-05-05 04:57 | 52.12325 | -11.67251 | 32149 ft | 464 kts | 295° |
| 2026-05-05 04:57 | 52.15019 | -11.76789 | 32149 ft | 464 kts | 295° |
| 2026-05-05 04:58 | 52.17708 | -11.86350 | 32157 ft | 464 kts | 295° |
| 2026-05-05 04:58 | 52.20388 | -11.95918 | 32150 ft | 464 kts | 295° |
| 2026-05-05 04:59 | 52.23057 | -12.05482 | 32152 ft | 463 kts | 295° |
| 2026-05-05 04:59 | 52.25715 | -12.15047 | 32157 ft | 462 kts | 295° |
| 2026-05-05 05:00 | 52.28345 | -12.24550 | 32158 ft | 462 kts | 295° |
| 2026-05-05 05:00 | 52.30983 | -12.34121 | 32161 ft | 462 kts | 295° |
| 2026-05-05 05:01 | 52.33610 | -12.43693 | 32166 ft | 462 kts | 295° |
| 2026-05-05 05:01 | 52.36232 | -12.53286 | 32165 ft | 462 kts | 294° |
| 2026-05-05 05:02 | 52.38846 | -12.62889 | 32170 ft | 462 kts | 294° |
| 2026-05-05 05:02 | 52.41450 | -12.72496 | 32170 ft | 462 kts | 294° |
| 2026-05-05 05:03 | 52.44048 | -12.82121 | 32168 ft | 462 kts | 294° |
| 2026-05-05 05:03 | 52.46638 | -12.91756 | 32172 ft | 462 kts | 294° |
| 2026-05-05 05:04 | 52.49220 | -13.01402 | 32171 ft | 462 kts | 294° |
| 2026-05-05 05:04 | 52.51362 | -13.09432 | 32168 ft | 462 kts | 294° |
| 2026-05-05 05:05 | 52.53927 | -13.19088 | 32179 ft | 462 kts | 294° |
| 2026-05-05 05:05 | 52.56487 | -13.28769 | 32177 ft | 462 kts | 294° |
| 2026-05-05 05:06 | 52.59040 | -13.38463 | 32186 ft | 462 kts | 293° |
| 2026-05-05 05:06 | 52.61585 | -13.48169 | 32181 ft | 462 kts | 293° |
| 2026-05-05 05:07 | 52.64123 | -13.57886 | 32184 ft | 462 kts | 293° |
| 2026-05-05 05:07 | 52.66651 | -13.67612 | 32183 ft | 462 kts | 294° |
| 2026-05-05 05:08 | 52.69168 | -13.77335 | 32188 ft | 461 kts | 294° |
| 2026-05-05 05:08 | 52.71672 | -13.87046 | 32191 ft | 460 kts | 294° |
| 2026-05-05 05:09 | 52.74167 | -13.96769 | 32190 ft | 460 kts | 293° |
| 2026-05-05 05:09 | 52.76653 | -14.06496 | 32196 ft | 460 kts | 293° |
| 2026-05-05 05:10 | 52.79130 | -14.16232 | 32198 ft | 460 kts | 293° |
| 2026-05-05 05:10 | 52.81599 | -14.25979 | 32186 ft | 460 kts | 294° |
| 2026-05-05 05:11 | 52.84057 | -14.35725 | 32197 ft | 459 kts | 294° |
| 2026-05-05 05:11 | 52.86504 | -14.45469 | 32202 ft | 458 kts | 294° |
| 2026-05-05 05:12 | 52.88940 | -14.55212 | 32204 ft | 458 kts | 294° |
| 2026-05-05 05:12 | 52.91362 | -14.64943 | 32203 ft | 457 kts | 294° |
| 2026-05-05 05:13 | 52.93761 | -14.74620 | 32206 ft | 457 kts | 293° |
| 2026-05-05 05:13 | 52.96166 | -14.84369 | 32207 ft | 457 kts | 293° |
| 2026-05-05 05:14 | 52.98564 | -14.94124 | 32207 ft | 456 kts | 293° |
| 2026-05-05 05:14 | 53.00947 | -15.03978 | 32253 ft | 459 kts | 292° |
| 2026-05-05 05:14 | 53.02063 | -15.08881 | 32516 ft | 460 kts | 291° |
| 2026-05-05 05:15 | 53.03185 | -15.13921 | 32949 ft | 458 kts | 291° |
| 2026-05-05 05:15 | 53.04263 | -15.18803 | 33400 ft | 455 kts | 291° |
| 2026-05-05 05:15 | 53.05364 | -15.23788 | 33842 ft | 452 kts | 291° |
| 2026-05-05 05:15 | 53.06431 | -15.28613 | 34161 ft | 452 kts | 291° |
| 2026-05-05 05:16 | 53.07524 | -15.33546 | 34196 ft | 456 kts | 291° |
| 2026-05-05 05:16 | 53.09718 | -15.43447 | 34205 ft | 454 kts | 291° |
| 2026-05-05 05:17 | 53.11883 | -15.53249 | 34210 ft | 449 kts | 290° |
| 2026-05-05 05:17 | 53.14027 | -15.62999 | 34219 ft | 448 kts | 290° |
| 2026-05-05 05:18 | 53.16158 | -15.72743 | 34214 ft | 448 kts | 290° |
| 2026-05-05 05:18 | 53.18283 | -15.82501 | 34219 ft | 448 kts | 290° |
| 2026-05-05 05:19 | 53.20404 | -15.92287 | 34223 ft | 449 kts | 290° |
| 2026-05-05 05:19 | 53.22519 | -16.02095 | 34225 ft | 450 kts | 290° |
| 2026-05-05 05:20 | 53.24632 | -16.11941 | 34228 ft | 451 kts | 290° |
| 2026-05-05 05:20 | 53.26741 | -16.21812 | 34226 ft | 451 kts | 290° |
| 2026-05-05 05:21 | 53.28843 | -16.31703 | 34224 ft | 452 kts | 290° |
| 2026-05-05 05:21 | 53.30938 | -16.41609 | 34225 ft | 452 kts | 290° |
| 2026-05-05 05:22 | 53.33025 | -16.51524 | 34236 ft | 452 kts | 290° |
| 2026-05-05 05:22 | 53.35103 | -16.61446 | 34236 ft | 452 kts | 289° |
| 2026-05-05 05:23 | 53.37172 | -16.71371 | 34230 ft | 451 kts | 289° |
| 2026-05-05 05:23 | 53.39228 | -16.81285 | 34232 ft | 451 kts | 289° |
| 2026-05-05 05:24 | 53.41276 | -16.91210 | 34235 ft | 450 kts | 289° |
| 2026-05-05 05:24 | 53.43314 | -17.01138 | 34237 ft | 450 kts | 289° |
| 2026-05-05 05:25 | 53.45344 | -17.11072 | 34237 ft | 450 kts | 289° |
| 2026-05-05 05:25 | 53.47365 | -17.21014 | 34242 ft | 450 kts | 289° |
| 2026-05-05 05:26 | 53.49378 | -17.30965 | 34243 ft | 450 kts | 288° |
| 2026-05-05 05:26 | 53.51382 | -17.40925 | 34245 ft | 450 kts | 288° |
| 2026-05-05 05:27 | 53.53376 | -17.50884 | 34242 ft | 450 kts | 288° |
| 2026-05-05 05:27 | 53.56354 | -17.65854 | 34242 ft | 450 kts | 288° |
| 2026-05-05 05:28 | 53.58315 | -17.75777 | 34246 ft | 450 kts | 288° |
| 2026-05-05 05:28 | 53.60281 | -17.85775 | 34252 ft | 450 kts | 288° |
| 2026-05-05 05:29 | 53.62239 | -17.95780 | 34246 ft | 450 kts | 288° |
| 2026-05-05 05:29 | 53.64187 | -18.05792 | 34270 ft | 450 kts | 287° |
| 2026-05-05 05:30 | 53.66128 | -18.15816 | 34256 ft | 450 kts | 287° |
| 2026-05-05 05:30 | 53.68059 | -18.25840 | 34250 ft | 450 kts | 287° |
| 2026-05-05 05:31 | 53.69983 | -18.35882 | 34259 ft | 450 kts | 287° |
| 2026-05-05 05:31 | 53.71898 | -18.45933 | 34261 ft | 450 kts | 287° |
| 2026-05-05 05:32 | 53.73805 | -18.55990 | 34250 ft | 450 kts | 287° |
| 2026-05-05 05:32 | 53.75702 | -18.66051 | 34257 ft | 449 kts | 287° |
| 2026-05-05 05:33 | 53.77589 | -18.76116 | 34263 ft | 449 kts | 287° |
| 2026-05-05 05:33 | 53.79469 | -18.86191 | 34264 ft | 449 kts | 287° |
| 2026-05-05 05:34 | 53.81340 | -18.96280 | 34269 ft | 449 kts | 286° |
| 2026-05-05 05:34 | 53.83202 | -19.06369 | 34264 ft | 449 kts | 286° |
| 2026-05-05 05:35 | 53.85057 | -19.16477 | 34261 ft | 449 kts | 286° |
| 2026-05-05 05:35 | 53.86891 | -19.26523 | 34263 ft | 449 kts | 286° |
| 2026-05-05 05:36 | 53.88728 | -19.36641 | 34272 ft | 449 kts | 286° |
| 2026-05-05 05:36 | 53.90555 | -19.46763 | 34273 ft | 449 kts | 286° |
| 2026-05-05 05:37 | 53.92374 | -19.56891 | 34289 ft | 449 kts | 285° |
| 2026-05-05 05:37 | 53.94184 | -19.67032 | 34265 ft | 449 kts | 285° |
| 2026-05-05 05:38 | 53.95985 | -19.77174 | 34284 ft | 449 kts | 285° |
| 2026-05-05 05:38 | 53.97780 | -19.87337 | 34274 ft | 449 kts | 285° |
| 2026-05-05 05:39 | 53.99523 | -19.97529 | 34265 ft | 449 kts | 282° |
| 2026-05-05 05:39 | 54.00395 | -20.07994 | 34283 ft | 447 kts | 273° |
| 2026-05-05 05:40 | 54.00778 | -20.18550 | 34281 ft | 448 kts | 273° |
| 2026-05-05 05:40 | 54.01174 | -20.29119 | 34275 ft | 448 kts | 273° |
| 2026-05-05 05:41 | 54.01577 | -20.39695 | 34268 ft | 448 kts | 273° |
| 2026-05-05 05:41 | 54.01977 | -20.50265 | 34287 ft | 448 kts | 273° |
| 2026-05-05 05:42 | 54.02367 | -20.60789 | 34280 ft | 449 kts | 273° |
| 2026-05-05 05:42 | 54.02750 | -20.71394 | 34287 ft | 449 kts | 272° |
| 2026-05-05 05:43 | 54.03123 | -20.82010 | 34289 ft | 450 kts | 272° |
| 2026-05-05 05:43 | 54.03488 | -20.92634 | 34288 ft | 450 kts | 272° |
| 2026-05-05 05:44 | 54.03843 | -21.03262 | 34289 ft | 450 kts | 272° |
| 2026-05-05 05:44 | 54.04189 | -21.13891 | 34292 ft | 450 kts | 272° |
| 2026-05-05 05:45 | 54.04525 | -21.24509 | 34293 ft | 450 kts | 272° |
| 2026-05-05 05:45 | 54.04852 | -21.35136 | 34293 ft | 450 kts | 272° |
| 2026-05-05 05:46 | 54.05169 | -21.45760 | 34292 ft | 449 kts | 272° |
| 2026-05-05 05:46 | 54.05477 | -21.56381 | 34290 ft | 449 kts | 272° |
| 2026-05-05 05:47 | 54.05775 | -21.67005 | 34292 ft | 449 kts | 272° |
| 2026-05-05 05:47 | 54.06064 | -21.77634 | 34299 ft | 450 kts | 272° |
| 2026-05-05 05:48 | 54.06344 | -21.88275 | 34297 ft | 450 kts | 272° |
| 2026-05-05 05:48 | 54.06615 | -21.98915 | 34296 ft | 451 kts | 272° |
| 2026-05-05 05:49 | 54.06877 | -22.09576 | 34298 ft | 451 kts | 272° |
| 2026-05-05 05:49 | 54.07129 | -22.20246 | 34296 ft | 451 kts | 272° |
| 2026-05-05 05:50 | 54.07373 | -22.30921 | 34300 ft | 451 kts | 272° |
| 2026-05-05 05:50 | 54.07606 | -22.41602 | 34303 ft | 451 kts | 271° |
| 2026-05-05 05:51 | 54.07831 | -22.52283 | 34306 ft | 451 kts | 271° |
| 2026-05-05 05:51 | 54.08010 | -22.61151 | 34307 ft | 451 kts | 271° |
| 2026-05-05 05:52 | 54.08217 | -22.71832 | 34308 ft | 451 kts | 271° |
| 2026-05-05 05:52 | 54.08414 | -22.82520 | 34301 ft | 452 kts | 271° |
| 2026-05-05 05:53 | 54.08603 | -22.93221 | 34307 ft | 452 kts | 271° |
| 2026-05-05 05:53 | 54.08782 | -23.03946 | 34305 ft | 454 kts | 271° |
| 2026-05-05 05:54 | 54.08952 | -23.14716 | 34312 ft | 456 kts | 271° |
| 2026-05-05 05:54 | 54.09114 | -23.25526 | 34309 ft | 457 kts | 271° |
| 2026-05-05 05:55 | 54.09265 | -23.36360 | 34304 ft | 459 kts | 271° |
| 2026-05-05 05:55 | 54.09408 | -23.47244 | 34319 ft | 460 kts | 271° |
| 2026-05-05 05:56 | 54.09541 | -23.58086 | 34316 ft | 461 kts | 271° |
| 2026-05-05 05:56 | 54.09665 | -23.69021 | 34316 ft | 462 kts | 271° |
| 2026-05-05 05:57 | 54.09779 | -23.79965 | 34314 ft | 462 kts | 271° |
| 2026-05-05 05:57 | 54.09883 | -23.90906 | 34310 ft | 462 kts | 271° |
| 2026-05-05 05:58 | 54.09976 | -24.01831 | 34319 ft | 461 kts | 271° |
| 2026-05-05 05:58 | 54.10060 | -24.12753 | 34316 ft | 461 kts | 271° |
| 2026-05-05 05:59 | 54.10135 | -24.23662 | 34319 ft | 460 kts | 271° |
| 2026-05-05 05:59 | 54.10199 | -24.34582 | 34317 ft | 461 kts | 271° |
| 2026-05-05 06:00 | 54.10253 | -24.45530 | 34327 ft | 463 kts | 271° |
| 2026-05-05 06:00 | 54.10297 | -24.56503 | 34320 ft | 464 kts | 271° |
| 2026-05-05 06:01 | 54.10332 | -24.67513 | 34328 ft | 465 kts | 271° |
| 2026-05-05 06:01 | 54.10357 | -24.78479 | 34324 ft | 466 kts | 271° |
| 2026-05-05 06:02 | 54.10372 | -24.89539 | 34328 ft | 467 kts | 271° |
| 2026-05-05 06:02 | 54.10376 | -25.00683 | 34329 ft | 467 kts | 271° |
| 2026-05-05 06:03 | 54.10370 | -25.11666 | 34323 ft | 466 kts | 272° |
| 2026-05-05 06:03 | 54.10354 | -25.22706 | 34323 ft | 465 kts | 272° |
| 2026-05-05 06:04 | 54.10329 | -25.33713 | 34339 ft | 464 kts | 271° |
| 2026-05-05 06:04 | 54.10293 | -25.44693 | 34342 ft | 463 kts | 271° |
| 2026-05-05 06:05 | 54.10247 | -25.55654 | 34325 ft | 463 kts | 272° |
| 2026-05-05 06:05 | 54.10192 | -25.66621 | 34324 ft | 463 kts | 272° |
| 2026-05-05 06:06 | 54.10126 | -25.77574 | 34333 ft | 463 kts | 272° |
| 2026-05-05 06:06 | 54.10051 | -25.88536 | 34327 ft | 463 kts | 272° |
| 2026-05-05 06:07 | 54.09966 | -25.99501 | 34328 ft | 463 kts | 272° |
| 2026-05-05 06:07 | 54.09871 | -26.10468 | 34332 ft | 463 kts | 272° |
| 2026-05-05 06:08 | 54.09765 | -26.21436 | 34332 ft | 463 kts | 272° |
| 2026-05-05 06:08 | 54.09649 | -26.32390 | 34330 ft | 462 kts | 272° |
| 2026-05-05 06:09 | 54.09524 | -26.43313 | 34338 ft | 460 kts | 272° |
| 2026-05-05 06:09 | 54.09390 | -26.54210 | 34341 ft | 460 kts | 272° |
| 2026-05-05 06:10 | 54.09246 | -26.65076 | 34341 ft | 459 kts | 271° |
| 2026-05-05 06:10 | 54.09093 | -26.75942 | 34346 ft | 459 kts | 271° |
| 2026-05-05 06:11 | 54.08930 | -26.86803 | 34336 ft | 458 kts | 271° |
| 2026-05-05 06:11 | 54.08757 | -26.97649 | 34341 ft | 458 kts | 271° |
| 2026-05-05 06:12 | 54.08574 | -27.08494 | 34348 ft | 458 kts | 271° |
| 2026-05-05 06:12 | 54.08382 | -27.19344 | 34355 ft | 458 kts | 271° |
| 2026-05-05 06:13 | 54.08181 | -27.30126 | 34354 ft | 459 kts | 271° |
| 2026-05-05 06:13 | 54.07968 | -27.41046 | 34343 ft | 459 kts | 271° |
| 2026-05-05 06:14 | 54.07746 | -27.51902 | 34354 ft | 459 kts | 270° |
| 2026-05-05 06:14 | 54.07514 | -27.62760 | 34349 ft | 459 kts | 270° |
| 2026-05-05 06:15 | 54.07274 | -27.73552 | 34356 ft | 459 kts | 270° |
| 2026-05-05 06:15 | 54.07022 | -27.84422 | 34361 ft | 460 kts | 270° |
| 2026-05-05 06:16 | 54.06761 | -27.95281 | 34355 ft | 460 kts | 270° |
| 2026-05-05 06:16 | 54.06490 | -28.06162 | 34351 ft | 460 kts | 270° |
| 2026-05-05 06:17 | 54.06208 | -28.17056 | 34363 ft | 461 kts | 270° |
| 2026-05-05 06:17 | 54.05916 | -28.27963 | 34360 ft | 461 kts | 270° |
| 2026-05-05 06:18 | 54.05614 | -28.38881 | 34362 ft | 462 kts | 270° |
| 2026-05-05 06:18 | 54.05302 | -28.49792 | 34357 ft | 462 kts | 270° |
| 2026-05-05 06:19 | 54.04979 | -28.60718 | 34361 ft | 462 kts | 270° |
| 2026-05-05 06:19 | 54.04647 | -28.71640 | 34364 ft | 462 kts | 270° |
| 2026-05-05 06:20 | 54.04305 | -28.82559 | 34366 ft | 462 kts | 270° |
| 2026-05-05 06:20 | 54.03953 | -28.93478 | 34365 ft | 462 kts | 270° |
| 2026-05-05 06:21 | 54.03592 | -29.04394 | 34363 ft | 462 kts | 270° |
| 2026-05-05 06:21 | 54.03220 | -29.15300 | 34342 ft | 462 kts | 270° |
| 2026-05-05 06:22 | 54.02838 | -29.26201 | 34357 ft | 462 kts | 270° |
| 2026-05-05 06:22 | 54.02448 | -29.37113 | 34365 ft | 462 kts | 270° |
| 2026-05-05 06:23 | 54.02046 | -29.48041 | 34369 ft | 463 kts | 270° |
| 2026-05-05 06:23 | 54.01636 | -29.58916 | 34370 ft | 464 kts | 270° |
| 2026-05-05 06:24 | 54.01210 | -29.69953 | 34368 ft | 465 kts | 270° |
| 2026-05-05 06:24 | 54.00777 | -29.80906 | 34362 ft | 465 kts | 270° |
| 2026-05-05 06:25 | 54.00339 | -29.91792 | 34364 ft | 464 kts | 270° |
| 2026-05-05 06:25 | 54.00053 | -30.02734 | 34363 ft | 461 kts | 276° |
| 2026-05-05 06:26 | 54.00504 | -30.13572 | 34371 ft | 459 kts | 278° |
| 2026-05-05 06:26 | 54.00972 | -30.24407 | 34369 ft | 460 kts | 277° |
| 2026-05-05 06:27 | 54.01619 | -30.40660 | 34361 ft | 459 kts | 278° |
| 2026-05-05 06:28 | 54.02027 | -30.51475 | 34359 ft | 459 kts | 278° |
| 2026-05-05 06:28 | 54.02426 | -30.62307 | 34369 ft | 459 kts | 278° |
| 2026-05-05 06:29 | 54.02815 | -30.73150 | 34367 ft | 459 kts | 278° |
| 2026-05-05 06:29 | 54.03195 | -30.84006 | 34361 ft | 460 kts | 278° |
| 2026-05-05 06:30 | 54.03566 | -30.94870 | 34363 ft | 460 kts | 277° |
| 2026-05-05 06:30 | 54.03925 | -31.05718 | 34368 ft | 458 kts | 278° |
| 2026-05-05 06:31 | 54.04274 | -31.16532 | 34370 ft | 457 kts | 278° |
| 2026-05-05 06:31 | 54.04613 | -31.27311 | 34347 ft | 456 kts | 278° |
| 2026-05-05 06:32 | 54.04941 | -31.38086 | 34358 ft | 456 kts | 278° |
| 2026-05-05 06:32 | 54.05261 | -31.48855 | 34358 ft | 456 kts | 278° |
| 2026-05-05 06:33 | 54.05571 | -31.59627 | 34356 ft | 456 kts | 278° |
| 2026-05-05 06:33 | 54.05869 | -31.70381 | 34351 ft | 454 kts | 278° |
| 2026-05-05 06:34 | 54.06157 | -31.81104 | 34353 ft | 453 kts | 278° |
| 2026-05-05 06:34 | 54.06436 | -31.91802 | 34354 ft | 452 kts | 278° |
| 2026-05-05 06:35 | 54.06704 | -32.02482 | 34352 ft | 451 kts | 278° |
| 2026-05-05 06:35 | 54.06963 | -32.13140 | 34353 ft | 451 kts | 278° |
| 2026-05-05 06:36 | 54.07213 | -32.23810 | 34344 ft | 451 kts | 278° |
| 2026-05-05 06:36 | 54.07451 | -32.34392 | 34347 ft | 450 kts | 277° |
| 2026-05-05 06:37 | 54.07680 | -32.45024 | 34345 ft | 449 kts | 277° |
| 2026-05-05 06:37 | 54.07900 | -32.55640 | 34347 ft | 448 kts | 277° |
| 2026-05-05 06:38 | 54.08110 | -32.66245 | 34340 ft | 448 kts | 277° |
| 2026-05-05 06:38 | 54.08311 | -32.76830 | 34345 ft | 448 kts | 277° |
| 2026-05-05 06:39 | 54.08503 | -32.87425 | 34346 ft | 447 kts | 277° |
| 2026-05-05 06:39 | 54.08685 | -32.98001 | 34337 ft | 446 kts | 276° |
| 2026-05-05 06:40 | 54.08857 | -33.08549 | 34335 ft | 445 kts | 276° |
| 2026-05-05 06:40 | 54.09019 | -33.19081 | 34337 ft | 445 kts | 276° |
| 2026-05-05 06:41 | 54.09173 | -33.29607 | 34331 ft | 444 kts | 276° |
| 2026-05-05 06:41 | 54.09293 | -33.38345 | 34332 ft | 444 kts | 276° |
| 2026-05-05 06:42 | 54.09430 | -33.48867 | 34332 ft | 444 kts | 276° |
| 2026-05-05 06:42 | 54.09558 | -33.59392 | 34310 ft | 444 kts | 275° |
| 2026-05-05 06:43 | 54.09676 | -33.69911 | 34319 ft | 444 kts | 275° |
| 2026-05-05 06:43 | 54.09785 | -33.80444 | 34326 ft | 445 kts | 275° |
| 2026-05-05 06:44 | 54.09885 | -33.90992 | 34329 ft | 446 kts | 275° |
| 2026-05-05 06:44 | 54.09976 | -34.01545 | 34322 ft | 446 kts | 274° |
| 2026-05-05 06:45 | 54.10058 | -34.12138 | 34322 ft | 448 kts | 274° |
| 2026-05-05 06:45 | 54.10130 | -34.22762 | 34327 ft | 449 kts | 274° |
| 2026-05-05 06:46 | 54.10194 | -34.33422 | 34323 ft | 450 kts | 274° |
| 2026-05-05 06:46 | 54.10248 | -34.44105 | 34320 ft | 451 kts | 274° |
| 2026-05-05 06:47 | 54.10293 | -34.54804 | 34322 ft | 452 kts | 274° |
| 2026-05-05 06:47 | 54.10328 | -34.65499 | 34312 ft | 452 kts | 274° |
| 2026-05-05 06:48 | 54.10354 | -34.76196 | 34307 ft | 452 kts | 274° |
| 2026-05-05 06:48 | 54.10371 | -34.86892 | 34283 ft | 451 kts | 273° |
| 2026-05-05 06:49 | 54.10378 | -34.97581 | 34289 ft | 452 kts | 272° |
| 2026-05-05 06:49 | 54.10375 | -35.08301 | 34295 ft | 453 kts | 272° |
| 2026-05-05 06:50 | 54.10363 | -35.19054 | 34301 ft | 455 kts | 272° |
| 2026-05-05 06:50 | 54.10341 | -35.29856 | 34296 ft | 457 kts | 272° |
| 2026-05-05 06:51 | 54.10309 | -35.40613 | 34290 ft | 457 kts | 272° |
| 2026-05-05 06:51 | 54.10268 | -35.51535 | 34270 ft | 459 kts | 271° |
| 2026-05-05 06:52 | 54.10217 | -35.62351 | 34277 ft | 461 kts | 271° |
| 2026-05-05 06:52 | 54.10155 | -35.73288 | 34280 ft | 463 kts | 271° |
| 2026-05-05 06:53 | 54.10083 | -35.84255 | 34282 ft | 464 kts | 271° |
| 2026-05-05 06:53 | 54.10002 | -35.95271 | 34268 ft | 466 kts | 271° |
| 2026-05-05 06:54 | 54.09909 | -36.06317 | 34275 ft | 467 kts | 270° |
| 2026-05-05 06:54 | 54.09807 | -36.17374 | 34261 ft | 466 kts | 270° |
| 2026-05-05 06:55 | 54.09694 | -36.28411 | 34253 ft | 465 kts | 270° |
| 2026-05-05 06:55 | 54.09571 | -36.39403 | 34246 ft | 463 kts | 270° |
| 2026-05-05 06:56 | 54.09439 | -36.50368 | 34261 ft | 463 kts | 270° |
| 2026-05-05 06:56 | 54.09298 | -36.61324 | 34257 ft | 463 kts | 269° |
| 2026-05-05 06:57 | 54.09146 | -36.72318 | 34241 ft | 465 kts | 269° |
| 2026-05-05 06:57 | 54.08986 | -36.83337 | 34232 ft | 467 kts | 267° |
| 2026-05-05 06:58 | 54.08809 | -36.94487 | 34244 ft | 474 kts | 267° |
| 2026-05-05 06:58 | 54.08621 | -37.05742 | 34218 ft | 474 kts | 267° |
| 2026-05-05 06:59 | 54.08426 | -37.16924 | 34215 ft | 470 kts | 267° |
| 2026-05-05 06:59 | 54.08222 | -37.28022 | 34216 ft | 468 kts | 266° |
| 2026-05-05 07:00 | 54.08008 | -37.39089 | 34217 ft | 467 kts | 266° |
| 2026-05-05 07:00 | 54.07783 | -37.50218 | 34218 ft | 475 kts | 266° |
| 2026-05-05 07:01 | 54.07541 | -37.61556 | 34217 ft | 482 kts | 265° |
| 2026-05-05 07:01 | 54.07289 | -37.72904 | 34181 ft | 477 kts | 265° |
| 2026-05-05 07:02 | 54.07028 | -37.84181 | 34184 ft | 476 kts | 264° |
| 2026-05-05 07:02 | 54.06760 | -37.95382 | 34179 ft | 477 kts | 265° |
| 2026-05-05 07:03 | 54.06477 | -38.06655 | 34187 ft | 479 kts | 264° |
| 2026-05-05 07:03 | 54.06175 | -38.18152 | 34175 ft | 493 kts | 264° |
| 2026-05-05 07:04 | 54.05860 | -38.29868 | 34165 ft | 496 kts | 264° |
| 2026-05-05 07:04 | 54.05540 | -38.41514 | 34146 ft | 489 kts | 264° |
| 2026-05-05 07:05 | 54.05208 | -38.53047 | 34143 ft | 488 kts | 265° |
| 2026-05-05 07:05 | 54.04864 | -38.64585 | 34156 ft | 489 kts | 264° |
| 2026-05-05 07:06 | 54.04508 | -38.76160 | 34129 ft | 491 kts | 263° |
| 2026-05-05 07:06 | 54.04138 | -38.87774 | 34128 ft | 492 kts | 263° |
| 2026-05-05 07:07 | 54.03758 | -38.99399 | 34113 ft | 493 kts | 263° |
| 2026-05-05 07:07 | 54.03366 | -39.11052 | 34108 ft | 494 kts | 263° |
| 2026-05-05 07:08 | 54.02962 | -39.22710 | 34090 ft | 494 kts | 263° |
| 2026-05-05 07:08 | 54.02548 | -39.34366 | 34119 ft | 494 kts | 262° |
| 2026-05-05 07:09 | 54.02120 | -39.46034 | 34082 ft | 495 kts | 262° |
| 2026-05-05 07:09 | 54.01680 | -39.57739 | 34089 ft | 497 kts | 262° |
| 2026-05-05 07:10 | 54.01228 | -39.69478 | 34071 ft | 499 kts | 261° |
| 2026-05-05 07:10 | 54.00763 | -39.81263 | 34050 ft | 500 kts | 261° |
| 2026-05-05 07:11 | 54.00290 | -39.92990 | 34044 ft | 501 kts | 261° |
| 2026-05-05 07:11 | 53.99776 | -40.04810 | 34043 ft | 502 kts | 259° |
| 2026-05-05 07:12 | 53.99099 | -40.16607 | 34044 ft | 502 kts | 258° |
| 2026-05-05 07:12 | 53.98371 | -40.28423 | 34034 ft | 503 kts | 258° |
| 2026-05-05 07:13 | 53.97649 | -40.40257 | 34032 ft | 504 kts | 258° |
| 2026-05-05 07:13 | 53.96931 | -40.52101 | 34028 ft | 505 kts | 258° |
| 2026-05-05 07:14 | 53.96203 | -40.63963 | 34023 ft | 505 kts | 258° |
| 2026-05-05 07:14 | 53.95463 | -40.75829 | 34003 ft | 505 kts | 258° |
| 2026-05-05 07:15 | 53.94711 | -40.87695 | 34006 ft | 505 kts | 258° |
| 2026-05-05 07:15 | 53.93946 | -40.99545 | 33993 ft | 506 kts | 258° |
| 2026-05-05 07:16 | 53.93175 | -41.11323 | 33992 ft | 505 kts | 258° |
| 2026-05-05 07:16 | 53.92387 | -41.23168 | 34033 ft | 505 kts | 257° |
| 2026-05-05 07:17 | 53.91585 | -41.35043 | 33984 ft | 507 kts | 257° |
| 2026-05-05 07:17 | 53.90769 | -41.46943 | 33982 ft | 509 kts | 257° |
| 2026-05-05 07:18 | 53.89938 | -41.58889 | 33977 ft | 511 kts | 257° |
| 2026-05-05 07:18 | 53.89093 | -41.70865 | 33967 ft | 512 kts | 256° |
| 2026-05-05 07:19 | 53.88235 | -41.82850 | 33963 ft | 513 kts | 256° |
| 2026-05-05 07:19 | 53.87360 | -41.94888 | 33962 ft | 516 kts | 256° |
| 2026-05-05 07:20 | 53.86471 | -42.06959 | 33959 ft | 517 kts | 256° |
| 2026-05-05 07:20 | 53.85570 | -42.19043 | 33948 ft | 517 kts | 256° |
| 2026-05-05 07:21 | 53.84655 | -42.31127 | 33943 ft | 517 kts | 255° |
| 2026-05-05 07:21 | 53.83735 | -42.43119 | 33942 ft | 517 kts | 255° |
| 2026-05-05 07:22 | 53.82796 | -42.55184 | 33936 ft | 517 kts | 255° |
| 2026-05-05 07:22 | 53.81848 | -42.67225 | 33938 ft | 516 kts | 255° |
| 2026-05-05 07:23 | 53.80888 | -42.79251 | 33932 ft | 515 kts | 255° |
| 2026-05-05 07:23 | 53.79917 | -42.91248 | 33933 ft | 514 kts | 254° |
| 2026-05-05 07:24 | 53.78936 | -43.03222 | 33933 ft | 514 kts | 254° |
| 2026-05-05 07:24 | 53.77944 | -43.15174 | 33969 ft | 513 kts | 254° |
| 2026-05-05 07:25 | 53.76945 | -43.27080 | 33938 ft | 510 kts | 253° |
| 2026-05-05 07:25 | 53.75941 | -43.38893 | 33918 ft | 508 kts | 253° |
| 2026-05-05 07:26 | 53.74926 | -43.50683 | 33917 ft | 506 kts | 253° |
| 2026-05-05 07:26 | 53.73899 | -43.62454 | 33916 ft | 507 kts | 253° |
| 2026-05-05 07:27 | 53.72860 | -43.74227 | 33947 ft | 507 kts | 253° |
| 2026-05-05 07:27 | 53.71814 | -43.85980 | 33908 ft | 505 kts | 253° |
| 2026-05-05 07:28 | 53.70762 | -43.97668 | 33901 ft | 502 kts | 253° |
| 2026-05-05 07:28 | 53.69704 | -44.09280 | 33891 ft | 500 kts | 253° |
| 2026-05-05 07:29 | 53.68817 | -44.18908 | 33890 ft | 499 kts | 253° |
| 2026-05-05 07:29 | 53.67740 | -44.30464 | 33962 ft | 499 kts | 254° |
| 2026-05-05 07:30 | 53.66650 | -44.42037 | 33872 ft | 500 kts | 254° |
| 2026-05-05 07:30 | 53.65000 | -44.59369 | 33878 ft | 498 kts | 254° |
| 2026-05-05 07:31 | 53.63889 | -44.70876 | 33879 ft | 498 kts | 254° |
| 2026-05-05 07:31 | 53.62768 | -44.82374 | 33871 ft | 497 kts | 253° |
| 2026-05-05 07:32 | 53.61643 | -44.93778 | 33907 ft | 497 kts | 255° |
| 2026-05-05 07:32 | 53.60501 | -45.05246 | 33871 ft | 496 kts | 254° |
| 2026-05-05 07:33 | 53.59352 | -45.16674 | 33879 ft | 494 kts | 254° |
| 2026-05-05 07:33 | 53.58194 | -45.28073 | 33856 ft | 494 kts | 254° |
| 2026-05-05 07:34 | 53.57026 | -45.39443 | 33847 ft | 493 kts | 254° |
| 2026-05-05 07:34 | 53.55848 | -45.50815 | 33880 ft | 493 kts | 254° |
| 2026-05-05 07:35 | 53.54659 | -45.62180 | 33839 ft | 493 kts | 254° |
| 2026-05-05 07:35 | 53.53461 | -45.73525 | 33825 ft | 492 kts | 254° |
| 2026-05-05 07:36 | 53.52254 | -45.84849 | 33828 ft | 492 kts | 254° |
| 2026-05-05 07:36 | 53.51037 | -45.96152 | 33809 ft | 491 kts | 254° |
| 2026-05-05 07:37 | 53.49811 | -46.07440 | 33812 ft | 491 kts | 254° |
| 2026-05-05 07:37 | 53.48573 | -46.18728 | 33811 ft | 492 kts | 254° |
| 2026-05-05 07:38 | 53.47325 | -46.30000 | 33797 ft | 491 kts | 254° |
| 2026-05-05 07:38 | 53.46069 | -46.41259 | 33792 ft | 490 kts | 254° |
| 2026-05-05 07:39 | 53.44803 | -46.52491 | 33792 ft | 490 kts | 254° |
| 2026-05-05 07:39 | 53.43529 | -46.63702 | 33774 ft | 489 kts | 253° |
| 2026-05-05 07:40 | 53.42254 | -46.74821 | 33772 ft | 489 kts | 253° |
| 2026-05-05 07:40 | 53.40961 | -46.86002 | 33767 ft | 488 kts | 253° |
| 2026-05-05 07:41 | 53.39657 | -46.97177 | 33768 ft | 489 kts | 253° |
| 2026-05-05 07:41 | 53.38342 | -47.08344 | 33759 ft | 490 kts | 253° |
| 2026-05-05 07:42 | 53.37014 | -47.19536 | 33747 ft | 490 kts | 253° |
| 2026-05-05 07:42 | 53.35673 | -47.30734 | 33782 ft | 491 kts | 253° |
| 2026-05-05 07:43 | 53.34323 | -47.41929 | 33733 ft | 490 kts | 253° |
| 2026-05-05 07:43 | 53.32966 | -47.53085 | 33725 ft | 488 kts | 253° |
| 2026-05-05 07:44 | 53.31603 | -47.64192 | 33723 ft | 487 kts | 253° |
| 2026-05-05 07:44 | 53.30234 | -47.75255 | 33711 ft | 485 kts | 253° |
| 2026-05-05 07:45 | 53.28860 | -47.86271 | 33703 ft | 484 kts | 253° |
| 2026-05-05 07:45 | 53.27483 | -47.97210 | 33720 ft | 485 kts | 253° |
| 2026-05-05 07:46 | 53.26087 | -48.08228 | 33702 ft | 485 kts | 253° |
| 2026-05-05 07:46 | 53.24681 | -48.19237 | 33682 ft | 485 kts | 253° |
| 2026-05-05 07:47 | 53.23265 | -48.30237 | 33678 ft | 485 kts | 253° |
| 2026-05-05 07:47 | 53.21838 | -48.41233 | 33677 ft | 485 kts | 252° |
| 2026-05-05 07:48 | 53.20400 | -48.52226 | 33681 ft | 485 kts | 253° |
| 2026-05-05 07:48 | 53.18953 | -48.63205 | 33666 ft | 485 kts | 253° |
| 2026-05-05 07:49 | 53.17498 | -48.74177 | 33648 ft | 484 kts | 253° |
| 2026-05-05 07:49 | 53.16033 | -48.85125 | 33637 ft | 484 kts | 253° |
| 2026-05-05 07:50 | 53.14558 | -48.96064 | 33630 ft | 484 kts | 253° |
| 2026-05-05 07:50 | 53.13074 | -49.06995 | 33630 ft | 484 kts | 252° |
| 2026-05-05 07:51 | 53.11579 | -49.17920 | 33624 ft | 484 kts | 253° |
| 2026-05-05 07:51 | 53.10077 | -49.28822 | 33608 ft | 483 kts | 253° |
| 2026-05-05 07:52 | 53.08568 | -49.39696 | 33602 ft | 482 kts | 252° |
| 2026-05-05 07:52 | 53.07054 | -49.50528 | 33602 ft | 481 kts | 252° |
| 2026-05-05 07:53 | 53.05530 | -49.61349 | 33596 ft | 480 kts | 252° |
| 2026-05-05 07:53 | 53.04007 | -49.72084 | 33604 ft | 481 kts | 252° |
| 2026-05-05 07:54 | 53.02463 | -49.82895 | 33590 ft | 481 kts | 252° |
| 2026-05-05 07:54 | 53.00911 | -49.93703 | 33566 ft | 481 kts | 252° |
| 2026-05-05 07:55 | 52.99058 | -50.04330 | 33561 ft | 477 kts | 244° |
| 2026-05-05 07:55 | 52.96572 | -50.14515 | 33558 ft | 476 kts | 244° |
| 2026-05-05 07:56 | 52.94074 | -50.24685 | 33575 ft | 477 kts | 244° |
| 2026-05-05 07:56 | 52.91587 | -50.34889 | 33548 ft | 478 kts | 244° |
| 2026-05-05 07:57 | 52.89103 | -50.45096 | 33542 ft | 478 kts | 244° |
| 2026-05-05 07:57 | 52.86614 | -50.55289 | 33537 ft | 477 kts | 244° |
| 2026-05-05 07:58 | 52.84117 | -50.65464 | 33538 ft | 477 kts | 244° |
| 2026-05-05 07:58 | 52.81612 | -50.75621 | 33547 ft | 477 kts | 245° |
| 2026-05-05 07:59 | 52.79096 | -50.85769 | 33522 ft | 478 kts | 244° |
| 2026-05-05 07:59 | 52.76569 | -50.95920 | 33512 ft | 478 kts | 244° |
| 2026-05-05 08:00 | 52.74031 | -51.06067 | 33517 ft | 478 kts | 244° |
| 2026-05-05 08:00 | 52.71484 | -51.16204 | 33510 ft | 478 kts | 244° |
| 2026-05-05 08:01 | 52.68926 | -51.26337 | 33505 ft | 479 kts | 244° |
| 2026-05-05 08:01 | 52.66359 | -51.36465 | 33489 ft | 479 kts | 244° |
| 2026-05-05 08:02 | 52.63786 | -51.46567 | 33488 ft | 479 kts | 244° |
| 2026-05-05 08:02 | 52.61203 | -51.56661 | 33482 ft | 478 kts | 244° |
| 2026-05-05 08:03 | 52.58613 | -51.66739 | 33475 ft | 478 kts | 244° |
| 2026-05-05 08:03 | 52.56016 | -51.76798 | 33470 ft | 478 kts | 244° |
| 2026-05-05 08:04 | 52.53414 | -51.86834 | 33467 ft | 477 kts | 244° |
| 2026-05-05 08:04 | 52.50806 | -51.96846 | 33468 ft | 477 kts | 244° |
| 2026-05-05 08:05 | 52.48192 | -52.06837 | 33454 ft | 476 kts | 244° |
| 2026-05-05 08:05 | 52.45571 | -52.16812 | 33455 ft | 476 kts | 244° |
| 2026-05-05 08:06 | 52.42941 | -52.26778 | 33451 ft | 476 kts | 244° |
| 2026-05-05 08:06 | 52.40304 | -52.36725 | 33451 ft | 477 kts | 244° |
| 2026-05-05 08:07 | 52.37654 | -52.46677 | 33447 ft | 477 kts | 244° |
| 2026-05-05 08:07 | 52.34995 | -52.56622 | 33441 ft | 477 kts | 243° |
| 2026-05-05 08:08 | 52.32327 | -52.66556 | 33455 ft | 477 kts | 244° |
| 2026-05-05 08:08 | 52.29673 | -52.76396 | 33442 ft | 476 kts | 244° |
| 2026-05-05 08:09 | 52.27002 | -52.86260 | 33430 ft | 474 kts | 244° |
| 2026-05-05 08:09 | 52.24331 | -52.96078 | 33433 ft | 474 kts | 243° |
| 2026-05-05 08:10 | 52.21648 | -53.05900 | 33423 ft | 474 kts | 244° |
| 2026-05-05 08:10 | 52.18953 | -53.15723 | 33430 ft | 475 kts | 244° |
| 2026-05-05 08:11 | 52.16251 | -53.25531 | 33418 ft | 474 kts | 244° |
| 2026-05-05 08:11 | 52.13542 | -53.35317 | 33420 ft | 473 kts | 244° |
| 2026-05-05 08:12 | 52.10833 | -53.45068 | 33414 ft | 473 kts | 244° |
| 2026-05-05 08:12 | 52.08115 | -53.54812 | 33416 ft | 473 kts | 243° |
| 2026-05-05 08:13 | 52.05390 | -53.64539 | 33412 ft | 472 kts | 244° |
| 2026-05-05 08:13 | 52.02662 | -53.74236 | 33411 ft | 471 kts | 244° |
| 2026-05-05 08:14 | 51.99933 | -53.83897 | 33403 ft | 470 kts | 243° |
| 2026-05-05 08:14 | 51.97204 | -53.93520 | 33402 ft | 470 kts | 244° |
| 2026-05-05 08:15 | 51.94461 | -54.03150 | 33415 ft | 471 kts | 244° |
| 2026-05-05 08:15 | 51.91711 | -54.12765 | 33397 ft | 470 kts | 244° |
| 2026-05-05 08:16 | 51.88961 | -54.22343 | 33385 ft | 468 kts | 244° |
| 2026-05-05 08:16 | 51.86211 | -54.31884 | 33386 ft | 467 kts | 244° |
| 2026-05-05 08:17 | 51.83925 | -54.39788 | 33388 ft | 467 kts | 244° |
| 2026-05-05 08:17 | 51.81164 | -54.49300 | 33396 ft | 467 kts | 244° |
| 2026-05-05 08:18 | 51.78547 | -54.60720 | 33395 ft | 467 kts | 252° |
| 2026-05-05 08:18 | 51.76710 | -54.70776 | 33385 ft | 466 kts | 252° |
| 2026-05-05 08:19 | 51.75154 | -54.79165 | 33376 ft | 466 kts | 252° |
| 2026-05-05 08:19 | 51.73275 | -54.89165 | 33380 ft | 466 kts | 252° |
| 2026-05-05 08:20 | 51.71379 | -54.99163 | 33375 ft | 467 kts | 251° |
| 2026-05-05 08:20 | 51.69480 | -55.09120 | 33378 ft | 469 kts | 251° |
| 2026-05-05 08:21 | 51.67553 | -55.19171 | 33373 ft | 470 kts | 251° |
| 2026-05-05 08:21 | 51.65601 | -55.29304 | 33354 ft | 471 kts | 251° |
| 2026-05-05 08:22 | 51.63666 | -55.39298 | 33352 ft | 471 kts | 251° |
| 2026-05-05 08:22 | 51.61706 | -55.49367 | 33352 ft | 471 kts | 251° |
| 2026-05-05 08:23 | 51.59738 | -55.59423 | 33336 ft | 471 kts | 251° |
| 2026-05-05 08:23 | 51.57765 | -55.69453 | 33333 ft | 470 kts | 251° |
| 2026-05-05 08:24 | 51.55786 | -55.79463 | 33331 ft | 470 kts | 251° |
| 2026-05-05 08:24 | 51.53795 | -55.89475 | 33331 ft | 471 kts | 251° |
| 2026-05-05 08:25 | 51.51792 | -55.99494 | 33329 ft | 472 kts | 251° |
| 2026-05-05 08:25 | 51.49781 | -56.09511 | 33329 ft | 472 kts | 251° |
| 2026-05-05 08:26 | 51.47755 | -56.19544 | 33330 ft | 472 kts | 251° |
| 2026-05-05 08:26 | 51.45722 | -56.29567 | 33317 ft | 472 kts | 251° |
| 2026-05-05 08:27 | 51.43683 | -56.39565 | 33314 ft | 472 kts | 251° |
| 2026-05-05 08:27 | 51.41637 | -56.49547 | 33314 ft | 472 kts | 251° |
| 2026-05-05 08:28 | 51.39582 | -56.59515 | 33323 ft | 470 kts | 252° |
| 2026-05-05 08:28 | 51.37555 | -56.69308 | 33307 ft | 456 kts | 251° |
| 2026-05-05 08:29 | 51.35568 | -56.78864 | 33322 ft | 453 kts | 251° |
| 2026-05-05 08:30 | 51.32543 | -56.93316 | 33330 ft | 460 kts | 251° |
| 2026-05-05 08:30 | 51.30502 | -57.03012 | 33328 ft | 460 kts | 251° |
| 2026-05-05 08:31 | 51.28455 | -57.12687 | 33319 ft | 459 kts | 251° |
| 2026-05-05 08:31 | 51.26407 | -57.22324 | 33318 ft | 458 kts | 251° |
| 2026-05-05 08:32 | 51.24353 | -57.31940 | 33336 ft | 457 kts | 251° |
| 2026-05-05 08:32 | 51.22284 | -57.41585 | 33344 ft | 463 kts | 251° |
| 2026-05-05 08:33 | 51.20172 | -57.51374 | 33376 ft | 469 kts | 251° |
| 2026-05-05 08:33 | 51.18042 | -57.61206 | 33357 ft | 467 kts | 250° |
| 2026-05-05 08:34 | 51.15927 | -57.70924 | 33374 ft | 462 kts | 251° |
| 2026-05-05 08:34 | 51.13832 | -57.80506 | 33384 ft | 461 kts | 250° |
| 2026-05-05 08:35 | 51.11720 | -57.90117 | 33401 ft | 460 kts | 250° |
| 2026-05-05 08:35 | 51.09591 | -57.99760 | 33408 ft | 463 kts | 250° |
| 2026-05-05 08:36 | 51.07445 | -58.09440 | 33421 ft | 465 kts | 250° |
| 2026-05-05 08:36 | 51.05282 | -58.19145 | 33398 ft | 467 kts | 250° |
| 2026-05-05 08:37 | 51.03104 | -58.28877 | 33409 ft | 468 kts | 250° |
| 2026-05-05 08:37 | 51.00913 | -58.38620 | 33408 ft | 469 kts | 250° |
| 2026-05-05 08:38 | 50.98708 | -58.48378 | 33406 ft | 470 kts | 250° |
| 2026-05-05 08:38 | 50.96495 | -58.58128 | 33400 ft | 469 kts | 250° |
| 2026-05-05 08:39 | 50.94277 | -58.67858 | 33404 ft | 469 kts | 250° |
| 2026-05-05 08:39 | 50.92056 | -58.77552 | 33397 ft | 467 kts | 250° |
| 2026-05-05 08:40 | 50.89835 | -58.87200 | 33406 ft | 465 kts | 250° |
| 2026-05-05 08:40 | 50.87612 | -58.96821 | 33407 ft | 465 kts | 250° |
| 2026-05-05 08:41 | 50.85380 | -59.06430 | 33407 ft | 465 kts | 250° |
| 2026-05-05 08:41 | 50.83142 | -59.16027 | 33411 ft | 466 kts | 250° |
| 2026-05-05 08:42 | 50.80890 | -59.25635 | 33404 ft | 466 kts | 250° |
| 2026-05-05 08:42 | 50.78632 | -59.35232 | 33410 ft | 466 kts | 250° |
| 2026-05-05 08:43 | 50.76365 | -59.44821 | 33410 ft | 466 kts | 250° |
| 2026-05-05 08:43 | 50.74090 | -59.54403 | 33416 ft | 466 kts | 250° |
| 2026-05-05 08:44 | 50.71822 | -59.63915 | 33417 ft | 466 kts | 250° |
| 2026-05-05 08:44 | 50.69529 | -59.73484 | 33418 ft | 466 kts | 250° |
| 2026-05-05 08:45 | 50.67215 | -59.83101 | 33428 ft | 467 kts | 250° |
| 2026-05-05 08:45 | 50.64920 | -59.92600 | 33440 ft | 467 kts | 250° |
| 2026-05-05 08:46 | 50.62599 | -60.02162 | 33451 ft | 467 kts | 250° |
| 2026-05-05 08:46 | 50.60269 | -60.11721 | 33471 ft | 468 kts | 250° |
| 2026-05-05 08:47 | 50.57931 | -60.21274 | 33452 ft | 468 kts | 250° |
| 2026-05-05 08:47 | 50.55585 | -60.30815 | 33495 ft | 467 kts | 250° |
| 2026-05-05 08:48 | 50.53232 | -60.40342 | 33480 ft | 467 kts | 250° |
| 2026-05-05 08:48 | 50.50872 | -60.49855 | 33496 ft | 467 kts | 250° |
| 2026-05-05 08:49 | 50.48509 | -60.59345 | 33522 ft | 467 kts | 250° |
| 2026-05-05 08:49 | 50.46136 | -60.68832 | 33509 ft | 467 kts | 250° |
| 2026-05-05 08:50 | 50.43758 | -60.78298 | 33522 ft | 466 kts | 250° |
| 2026-05-05 08:50 | 50.41378 | -60.87734 | 33525 ft | 465 kts | 250° |
| 2026-05-05 08:51 | 50.38993 | -60.97147 | 33535 ft | 464 kts | 249° |
| 2026-05-05 08:51 | 50.36604 | -61.06539 | 33535 ft | 464 kts | 249° |
| 2026-05-05 08:52 | 50.34209 | -61.15915 | 33535 ft | 464 kts | 250° |
| 2026-05-05 08:52 | 50.31812 | -61.25258 | 33535 ft | 462 kts | 250° |
| 2026-05-05 08:53 | 50.29416 | -61.34560 | 33538 ft | 460 kts | 250° |
| 2026-05-05 08:53 | 50.27022 | -61.43818 | 33534 ft | 458 kts | 250° |
| 2026-05-05 08:54 | 50.24628 | -61.53038 | 33527 ft | 457 kts | 250° |
| 2026-05-05 08:54 | 50.22231 | -61.62232 | 33525 ft | 457 kts | 250° |
| 2026-05-05 08:55 | 50.19828 | -61.71410 | 33518 ft | 456 kts | 250° |
| 2026-05-05 08:55 | 50.17421 | -61.80570 | 33529 ft | 456 kts | 250° |
| 2026-05-05 08:56 | 50.15007 | -61.89718 | 33560 ft | 456 kts | 250° |
| 2026-05-05 08:56 | 50.12589 | -61.98842 | 33563 ft | 456 kts | 250° |
| 2026-05-05 08:57 | 50.10163 | -62.07965 | 33569 ft | 456 kts | 250° |
| 2026-05-05 08:57 | 50.07746 | -62.17016 | 33573 ft | 456 kts | 250° |
| 2026-05-05 08:58 | 50.05306 | -62.26117 | 33575 ft | 456 kts | 250° |
| 2026-05-05 08:58 | 50.02858 | -62.35213 | 33587 ft | 456 kts | 250° |
| 2026-05-05 08:59 | 50.00402 | -62.44303 | 33585 ft | 456 kts | 250° |
| 2026-05-05 08:59 | 49.97942 | -62.53373 | 33607 ft | 456 kts | 250° |
| 2026-05-05 09:00 | 49.95471 | -62.62447 | 33602 ft | 456 kts | 250° |
| 2026-05-05 09:00 | 49.92995 | -62.71501 | 33608 ft | 455 kts | 250° |
| 2026-05-05 09:01 | 49.90515 | -62.80537 | 33611 ft | 455 kts | 250° |
| 2026-05-05 09:01 | 49.88030 | -62.89560 | 33624 ft | 455 kts | 250° |
| 2026-05-05 09:02 | 49.85537 | -62.98573 | 33624 ft | 455 kts | 250° |
| 2026-05-05 09:02 | 49.83038 | -63.07575 | 33638 ft | 455 kts | 250° |
| 2026-05-05 09:03 | 49.80533 | -63.16565 | 33629 ft | 454 kts | 250° |
| 2026-05-05 09:03 | 49.78024 | -63.25532 | 33657 ft | 454 kts | 250° |
| 2026-05-05 09:04 | 49.75513 | -63.34476 | 33658 ft | 453 kts | 250° |
| 2026-05-05 09:04 | 49.72998 | -63.43397 | 33651 ft | 452 kts | 250° |
| 2026-05-05 09:05 | 49.70484 | -63.52284 | 33651 ft | 451 kts | 250° |
| 2026-05-05 09:05 | 49.68392 | -63.59650 | 33627 ft | 450 kts | 250° |
| 2026-05-05 09:06 | 49.65474 | -63.69889 | 33663 ft | 447 kts | 250° |
| 2026-05-05 09:06 | 49.63375 | -63.77231 | 33670 ft | 446 kts | 250° |
| 2026-05-05 09:07 | 49.60865 | -63.85981 | 33673 ft | 446 kts | 250° |
| 2026-05-05 09:07 | 49.58350 | -63.94712 | 33676 ft | 445 kts | 250° |
| 2026-05-05 09:08 | 49.55829 | -64.03435 | 33669 ft | 445 kts | 250° |
| 2026-05-05 09:08 | 49.53323 | -64.12070 | 33670 ft | 443 kts | 250° |
| 2026-05-05 09:09 | 49.50808 | -64.20709 | 33670 ft | 441 kts | 250° |
| 2026-05-05 09:09 | 49.48301 | -64.29290 | 33675 ft | 439 kts | 250° |
| 2026-05-05 09:10 | 49.45793 | -64.37843 | 33672 ft | 438 kts | 250° |
| 2026-05-05 09:10 | 49.43284 | -64.46373 | 33677 ft | 438 kts | 250° |
| 2026-05-05 09:11 | 49.40769 | -64.54890 | 33671 ft | 437 kts | 250° |
| 2026-05-05 09:11 | 49.38254 | -64.63373 | 33675 ft | 436 kts | 250° |
| 2026-05-05 09:12 | 49.35741 | -64.71826 | 33658 ft | 435 kts | 250° |
| 2026-05-05 09:12 | 49.33228 | -64.80247 | 33682 ft | 434 kts | 250° |
| 2026-05-05 09:13 | 49.30712 | -64.88652 | 33678 ft | 434 kts | 250° |
| 2026-05-05 09:13 | 49.28192 | -64.97042 | 33694 ft | 434 kts | 250° |
| 2026-05-05 09:14 | 49.25660 | -65.05439 | 33698 ft | 435 kts | 250° |
| 2026-05-05 09:14 | 49.23119 | -65.13842 | 33707 ft | 435 kts | 250° |
| 2026-05-05 09:15 | 49.20564 | -65.22258 | 33693 ft | 437 kts | 250° |
| 2026-05-05 09:15 | 49.18002 | -65.30667 | 33718 ft | 437 kts | 250° |
| 2026-05-05 09:16 | 49.15446 | -65.39032 | 33697 ft | 437 kts | 250° |
| 2026-05-05 09:16 | 49.12869 | -65.47432 | 33712 ft | 436 kts | 250° |
| 2026-05-05 09:17 | 49.10291 | -65.55807 | 33711 ft | 436 kts | 250° |
| 2026-05-05 09:17 | 49.07710 | -65.64166 | 33737 ft | 435 kts | 250° |
| 2026-05-05 09:18 | 49.05124 | -65.72512 | 33724 ft | 435 kts | 250° |
| 2026-05-05 09:18 | 49.02539 | -65.80828 | 33735 ft | 434 kts | 250° |
| 2026-05-05 09:19 | 48.99948 | -65.89137 | 33707 ft | 434 kts | 250° |
| 2026-05-05 09:19 | 48.97359 | -65.97406 | 33734 ft | 432 kts | 250° |
| 2026-05-05 09:20 | 48.94771 | -66.05650 | 33747 ft | 432 kts | 250° |
| 2026-05-05 09:20 | 48.92181 | -66.13878 | 33736 ft | 430 kts | 250° |
| 2026-05-05 09:21 | 48.89597 | -66.22049 | 33762 ft | 428 kts | 250° |
| 2026-05-05 09:21 | 48.87015 | -66.30189 | 33754 ft | 427 kts | 249° |
| 2026-05-05 09:22 | 48.84437 | -66.38293 | 33763 ft | 426 kts | 249° |
| 2026-05-05 09:22 | 48.81859 | -66.46375 | 33760 ft | 425 kts | 249° |
| 2026-05-05 09:23 | 48.79277 | -66.54441 | 33748 ft | 425 kts | 249° |
| 2026-05-05 09:23 | 48.76690 | -66.62495 | 33751 ft | 425 kts | 249° |
| 2026-05-05 09:24 | 48.74096 | -66.70549 | 33766 ft | 426 kts | 249° |
| 2026-05-05 09:24 | 48.71490 | -66.78610 | 33752 ft | 426 kts | 249° |
| 2026-05-05 09:25 | 48.68874 | -66.86679 | 33757 ft | 427 kts | 249° |
| 2026-05-05 09:25 | 48.66250 | -66.94746 | 33762 ft | 428 kts | 249° |
| 2026-05-05 09:26 | 48.63611 | -67.02830 | 33760 ft | 429 kts | 248° |
| 2026-05-05 09:26 | 48.60965 | -67.10912 | 33763 ft | 429 kts | 248° |
| 2026-05-05 09:27 | 48.58329 | -67.18937 | 33753 ft | 429 kts | 248° |
| 2026-05-05 09:27 | 48.55674 | -67.26991 | 33752 ft | 428 kts | 248° |
| 2026-05-05 09:28 | 48.53020 | -67.35021 | 33751 ft | 428 kts | 248° |
| 2026-05-05 09:28 | 48.50361 | -67.43038 | 33767 ft | 427 kts | 248° |
| 2026-05-05 09:29 | 48.47699 | -67.51042 | 33752 ft | 427 kts | 248° |
| 2026-05-05 09:29 | 48.45032 | -67.59037 | 33752 ft | 427 kts | 248° |
| 2026-05-05 09:30 | 48.42364 | -67.67007 | 33744 ft | 426 kts | 248° |
| 2026-05-05 09:30 | 48.39695 | -67.74956 | 33755 ft | 425 kts | 248° |
| 2026-05-05 09:31 | 48.37023 | -67.82890 | 33759 ft | 425 kts | 248° |
| 2026-05-05 09:31 | 48.34348 | -67.90812 | 33762 ft | 425 kts | 248° |
| 2026-05-05 09:32 | 48.31662 | -67.98739 | 33751 ft | 425 kts | 248° |
| 2026-05-05 09:32 | 48.28978 | -68.06632 | 33744 ft | 425 kts | 248° |
| 2026-05-05 09:33 | 48.26294 | -68.14503 | 33743 ft | 423 kts | 248° |
| 2026-05-05 09:33 | 48.23613 | -68.22343 | 33750 ft | 422 kts | 248° |
| 2026-05-05 09:34 | 48.20929 | -68.30167 | 33745 ft | 421 kts | 247° |
| 2026-05-05 09:34 | 48.18244 | -68.37972 | 33747 ft | 421 kts | 247° |
| 2026-05-05 09:35 | 48.15555 | -68.45765 | 33747 ft | 421 kts | 247° |
| 2026-05-05 09:35 | 48.11520 | -68.57413 | 33730 ft | 420 kts | 247° |
| 2026-05-05 09:36 | 48.08825 | -68.65163 | 33758 ft | 420 kts | 247° |
| 2026-05-05 09:36 | 48.06127 | -68.72902 | 33744 ft | 419 kts | 247° |
| 2026-05-05 09:37 | 48.03435 | -68.80597 | 33725 ft | 417 kts | 247° |
| 2026-05-05 09:37 | 48.00747 | -68.88260 | 33723 ft | 416 kts | 247° |
| 2026-05-05 09:38 | 47.98077 | -68.95851 | 33733 ft | 415 kts | 247° |
| 2026-05-05 09:38 | 47.95392 | -69.03458 | 33738 ft | 415 kts | 247° |
| 2026-05-05 09:39 | 47.92701 | -69.11068 | 33719 ft | 415 kts | 247° |
| 2026-05-05 09:39 | 47.89999 | -69.18684 | 33720 ft | 416 kts | 247° |
| 2026-05-05 09:40 | 47.87289 | -69.26295 | 33731 ft | 416 kts | 247° |
| 2026-05-05 09:40 | 47.84576 | -69.33898 | 33704 ft | 416 kts | 246° |
| 2026-05-05 09:41 | 47.81864 | -69.41475 | 33708 ft | 414 kts | 246° |
| 2026-05-05 09:41 | 47.79158 | -69.49018 | 33711 ft | 413 kts | 246° |
| 2026-05-05 09:42 | 47.76431 | -69.56521 | 33699 ft | 413 kts | 244° |
| 2026-05-05 09:42 | 47.73094 | -69.63535 | 33743 ft | 422 kts | 236° |
| 2026-05-05 09:43 | 47.71207 | -69.66889 | 33988 ft | 423 kts | 236° |
| 2026-05-05 09:43 | 47.69332 | -69.70256 | 34254 ft | 423 kts | 236° |
| 2026-05-05 09:43 | 47.67459 | -69.73630 | 34558 ft | 424 kts | 236° |
| 2026-05-05 09:43 | 47.65585 | -69.77013 | 34814 ft | 425 kts | 236° |
| 2026-05-05 09:44 | 47.63710 | -69.80400 | 35064 ft | 426 kts | 236° |
| 2026-05-05 09:44 | 47.61822 | -69.83804 | 35320 ft | 427 kts | 236° |
| 2026-05-05 09:44 | 47.59934 | -69.87203 | 35541 ft | 428 kts | 236° |
| 2026-05-05 09:44 | 47.58030 | -69.90630 | 35625 ft | 433 kts | 236° |
| 2026-05-05 09:45 | 47.54189 | -69.97520 | 35685 ft | 433 kts | 235° |
| 2026-05-05 09:45 | 47.50387 | -70.04318 | 35685 ft | 425 kts | 235° |
| 2026-05-05 09:46 | 47.46625 | -70.11042 | 35694 ft | 424 kts | 235° |
| 2026-05-05 09:46 | 47.42856 | -70.17750 | 35701 ft | 424 kts | 235° |
| 2026-05-05 09:47 | 47.39096 | -70.24393 | 35702 ft | 425 kts | 235° |
| 2026-05-05 09:47 | 47.35299 | -70.31080 | 35685 ft | 425 kts | 235° |
| 2026-05-05 09:48 | 47.31496 | -70.37766 | 35695 ft | 426 kts | 235° |
| 2026-05-05 09:48 | 47.27676 | -70.44471 | 35708 ft | 428 kts | 235° |
| 2026-05-05 09:49 | 47.23840 | -70.51187 | 35709 ft | 429 kts | 235° |
| 2026-05-05 09:49 | 47.19991 | -70.57907 | 35705 ft | 430 kts | 235° |
| 2026-05-05 09:50 | 47.16129 | -70.64634 | 35695 ft | 431 kts | 235° |
| 2026-05-05 09:50 | 47.12260 | -70.71360 | 35686 ft | 431 kts | 235° |
| 2026-05-05 09:51 | 47.08395 | -70.78062 | 35717 ft | 431 kts | 234° |
| 2026-05-05 09:51 | 47.04519 | -70.84762 | 35710 ft | 430 kts | 234° |
| 2026-05-05 09:52 | 47.00638 | -70.91422 | 35692 ft | 429 kts | 234° |
| 2026-05-05 09:52 | 46.96762 | -70.98057 | 35702 ft | 428 kts | 234° |
| 2026-05-05 09:53 | 46.93541 | -71.03564 | 35714 ft | 428 kts | 234° |
| 2026-05-05 09:53 | 46.89040 | -71.11243 | 35708 ft | 428 kts | 234° |
| 2026-05-05 09:54 | 46.85167 | -71.17834 | 35703 ft | 427 kts | 234° |
| 2026-05-05 09:54 | 46.81296 | -71.24407 | 35704 ft | 427 kts | 234° |
| 2026-05-05 09:55 | 46.78105 | -71.29967 | 35691 ft | 425 kts | 237° |
| 2026-05-05 09:55 | 46.74558 | -71.36853 | 35689 ft | 425 kts | 238° |
| 2026-05-05 09:56 | 46.71011 | -71.43739 | 35714 ft | 425 kts | 237° |
| 2026-05-05 09:56 | 46.67457 | -71.50601 | 35688 ft | 424 kts | 237° |
| 2026-05-05 09:57 | 46.63927 | -71.57389 | 35698 ft | 422 kts | 237° |
| 2026-05-05 09:57 | 46.60388 | -71.64180 | 35695 ft | 421 kts | 237° |
| 2026-05-05 09:58 | 46.56851 | -71.70953 | 35696 ft | 420 kts | 237° |
| 2026-05-05 09:58 | 46.53263 | -71.77642 | 35682 ft | 420 kts | 236° |
| 2026-05-05 09:59 | 46.49627 | -71.84263 | 35684 ft | 419 kts | 236° |
| 2026-05-05 09:59 | 46.46006 | -71.90883 | 35692 ft | 418 kts | 236° |
| 2026-05-05 10:00 | 46.42382 | -71.97491 | 35699 ft | 419 kts | 236° |
| 2026-05-05 10:00 | 46.38752 | -72.04089 | 35700 ft | 419 kts | 236° |
| 2026-05-05 10:01 | 46.35119 | -72.10681 | 35707 ft | 419 kts | 236° |
| 2026-05-05 10:01 | 46.31481 | -72.17270 | 35687 ft | 419 kts | 236° |
| 2026-05-05 10:02 | 46.27844 | -72.23841 | 35679 ft | 418 kts | 236° |
| 2026-05-05 10:02 | 46.24207 | -72.30395 | 35676 ft | 418 kts | 236° |
| 2026-05-05 10:03 | 46.20570 | -72.36936 | 35658 ft | 418 kts | 236° |
| 2026-05-05 10:03 | 46.16928 | -72.43471 | 35660 ft | 418 kts | 236° |
| 2026-05-05 10:04 | 46.13280 | -72.50001 | 35665 ft | 418 kts | 236° |
| 2026-05-05 10:04 | 46.09627 | -72.56528 | 35667 ft | 419 kts | 236° |
| 2026-05-05 10:05 | 46.05963 | -72.63056 | 35663 ft | 419 kts | 236° |
| 2026-05-05 10:05 | 46.02301 | -72.69581 | 35657 ft | 419 kts | 236° |
| 2026-05-05 10:06 | 45.98634 | -72.76104 | 35680 ft | 420 kts | 235° |
| 2026-05-05 10:06 | 45.94951 | -72.82641 | 35670 ft | 421 kts | 235° |
| 2026-05-05 10:07 | 45.91266 | -72.89162 | 35665 ft | 421 kts | 235° |
| 2026-05-05 10:07 | 45.87537 | -72.95654 | 35655 ft | 421 kts | 234° |
| 2026-05-05 10:08 | 45.83795 | -73.02128 | 35671 ft | 421 kts | 234° |
| 2026-05-05 10:08 | 45.80057 | -73.08595 | 35671 ft | 422 kts | 234° |
| 2026-05-05 10:09 | 45.76317 | -73.15061 | 35665 ft | 422 kts | 234° |
| 2026-05-05 10:09 | 45.72573 | -73.21546 | 35655 ft | 421 kts | 237° |
| 2026-05-05 10:10 | 45.69828 | -73.28818 | 35659 ft | 415 kts | 250° |
| 2026-05-05 10:10 | 45.68315 | -73.36682 | 35665 ft | 414 kts | 261° |
| 2026-05-05 10:11 | 45.67461 | -73.44813 | 35652 ft | 414 kts | 261° |
| 2026-05-05 10:11 | 45.66593 | -73.52977 | 35650 ft | 415 kts | 261° |
| 2026-05-05 10:12 | 45.65693 | -73.61118 | 35648 ft | 415 kts | 261° |
| 2026-05-05 10:12 | 45.64778 | -73.69257 | 35643 ft | 415 kts | 261° |
| 2026-05-05 10:13 | 45.63856 | -73.77395 | 35646 ft | 415 kts | 261° |
| 2026-05-05 10:13 | 45.62928 | -73.85529 | 35636 ft | 415 kts | 261° |
| 2026-05-05 10:14 | 45.61998 | -73.93651 | 35638 ft | 414 kts | 261° |
| 2026-05-05 10:14 | 45.61130 | -74.01782 | 35633 ft | 414 kts | 263° |
| 2026-05-05 10:15 | 45.60477 | -74.09958 | 35652 ft | 414 kts | 263° |
| 2026-05-05 10:15 | 45.59839 | -74.18121 | 35649 ft | 414 kts | 263° |
| 2026-05-05 10:16 | 45.59172 | -74.26284 | 35652 ft | 414 kts | 262° |
| 2026-05-05 10:16 | 45.58486 | -74.34435 | 35651 ft | 413 kts | 262° |
| 2026-05-05 10:17 | 45.57790 | -74.42576 | 35637 ft | 413 kts | 262° |
| 2026-05-05 10:17 | 45.57090 | -74.50705 | 35644 ft | 413 kts | 262° |
| 2026-05-05 10:18 | 45.56383 | -74.58835 | 35637 ft | 413 kts | 262° |
| 2026-05-05 10:18 | 45.55671 | -74.66966 | 35643 ft | 413 kts | 262° |
| 2026-05-05 10:19 | 45.54955 | -74.75081 | 35630 ft | 413 kts | 262° |
| 2026-05-05 10:19 | 45.54232 | -74.83200 | 35614 ft | 412 kts | 262° |
| 2026-05-05 10:20 | 45.53509 | -74.91247 | 35618 ft | 412 kts | 262° |
| 2026-05-05 10:20 | 45.52776 | -74.99349 | 35622 ft | 412 kts | 262° |
| 2026-05-05 10:21 | 45.52037 | -75.07449 | 35631 ft | 412 kts | 261° |
| 2026-05-05 10:21 | 45.51292 | -75.15551 | 35618 ft | 412 kts | 261° |
| 2026-05-05 10:22 | 45.50541 | -75.23653 | 35605 ft | 412 kts | 261° |
| 2026-05-05 10:22 | 45.49784 | -75.31751 | 35603 ft | 412 kts | 261° |
| 2026-05-05 10:23 | 45.49022 | -75.39852 | 35601 ft | 412 kts | 261° |
| 2026-05-05 10:23 | 45.48254 | -75.47941 | 35626 ft | 412 kts | 261° |
| 2026-05-05 10:24 | 45.47481 | -75.56032 | 35607 ft | 412 kts | 261° |
| 2026-05-05 10:24 | 45.46703 | -75.64109 | 35600 ft | 411 kts | 261° |
| 2026-05-05 10:25 | 45.45920 | -75.72176 | 35595 ft | 410 kts | 261° |
| 2026-05-05 10:25 | 45.45134 | -75.80220 | 35592 ft | 410 kts | 261° |
| 2026-05-05 10:26 | 45.44343 | -75.88256 | 35593 ft | 410 kts | 261° |
| 2026-05-05 10:26 | 45.43480 | -75.96268 | 35601 ft | 409 kts | 259° |
| 2026-05-05 10:27 | 45.42550 | -76.04259 | 35589 ft | 409 kts | 259° |
| 2026-05-05 10:27 | 45.41628 | -76.12237 | 35591 ft | 408 kts | 259° |
| 2026-05-05 10:28 | 45.40709 | -76.20209 | 35591 ft | 408 kts | 259° |
| 2026-05-05 10:28 | 45.39455 | -76.28061 | 35589 ft | 407 kts | 251° |
| 2026-05-05 10:29 | 45.37666 | -76.35695 | 35592 ft | 407 kts | 252° |
| 2026-05-05 10:29 | 45.35889 | -76.43342 | 35579 ft | 407 kts | 251° |
| 2026-05-05 10:30 | 45.34110 | -76.50956 | 35582 ft | 406 kts | 251° |
| 2026-05-05 10:30 | 45.32327 | -76.58560 | 35584 ft | 405 kts | 251° |
| 2026-05-05 10:31 | 45.30542 | -76.66157 | 35588 ft | 405 kts | 251° |
| 2026-05-05 10:31 | 45.28751 | -76.73751 | 35589 ft | 405 kts | 251° |
| 2026-05-05 10:32 | 45.26957 | -76.81339 | 35574 ft | 405 kts | 251° |
| 2026-05-05 10:32 | 45.25169 | -76.88871 | 35585 ft | 405 kts | 251° |
| 2026-05-05 10:33 | 45.23353 | -76.96488 | 35583 ft | 405 kts | 251° |
| 2026-05-05 10:33 | 45.21544 | -77.04054 | 35580 ft | 405 kts | 251° |
| 2026-05-05 10:34 | 45.19741 | -77.11577 | 35591 ft | 406 kts | 251° |
| 2026-05-05 10:34 | 45.17917 | -77.19162 | 35587 ft | 407 kts | 251° |
| 2026-05-05 10:35 | 45.16081 | -77.26771 | 35592 ft | 408 kts | 251° |
| 2026-05-05 10:35 | 45.14237 | -77.34389 | 35594 ft | 409 kts | 251° |
| 2026-05-05 10:36 | 45.12384 | -77.42015 | 35584 ft | 410 kts | 251° |
| 2026-05-05 10:36 | 45.10526 | -77.49638 | 35585 ft | 409 kts | 251° |
| 2026-05-05 10:37 | 45.08664 | -77.57254 | 35571 ft | 409 kts | 251° |
| 2026-05-05 10:37 | 45.06799 | -77.64852 | 35581 ft | 409 kts | 251° |
| 2026-05-05 10:38 | 45.04929 | -77.72451 | 35596 ft | 409 kts | 250° |
| 2026-05-05 10:38 | 45.03054 | -77.80039 | 35587 ft | 408 kts | 250° |
| 2026-05-05 10:39 | 45.01178 | -77.87608 | 35586 ft | 408 kts | 250° |
| 2026-05-05 10:39 | 44.99299 | -77.95163 | 35572 ft | 407 kts | 250° |
| 2026-05-05 10:40 | 44.97737 | -78.01426 | 35583 ft | 407 kts | 250° |
| 2026-05-05 10:40 | 44.95535 | -78.10224 | 35553 ft | 406 kts | 250° |
| 2026-05-05 10:41 | 44.93659 | -78.17693 | 35572 ft | 406 kts | 250° |
| 2026-05-05 10:41 | 44.91764 | -78.25214 | 35575 ft | 407 kts | 250° |
| 2026-05-05 10:42 | 44.88907 | -78.36509 | 35576 ft | 408 kts | 250° |
| 2026-05-05 10:43 | 44.86992 | -78.44050 | 35577 ft | 409 kts | 250° |
| 2026-05-05 10:43 | 44.85383 | -78.50367 | 35572 ft | 409 kts | 250° |
| 2026-05-05 10:44 | 44.83471 | -78.57853 | 35577 ft | 406 kts | 250° |
| 2026-05-05 10:44 | 44.81571 | -78.65267 | 35548 ft | 399 kts | 250° |
| 2026-05-05 10:45 | 44.79681 | -78.72620 | 35562 ft | 400 kts | 250° |
| 2026-05-05 10:45 | 44.78520 | -78.76162 | 35571 ft | 400 kts | 239° |
| 2026-05-05 10:45 | 44.76889 | -78.79344 | 35581 ft | 402 kts | 233° |
| 2026-05-05 10:46 | 44.72856 | -78.84873 | 35573 ft | 412 kts | 219° |
| 2026-05-05 10:46 | 44.68007 | -78.89235 | 35576 ft | 415 kts | 218° |
| 2026-05-05 10:47 | 44.63126 | -78.93569 | 35560 ft | 415 kts | 218° |
| 2026-05-05 10:47 | 44.58261 | -78.97943 | 35575 ft | 416 kts | 218° |
| 2026-05-05 10:48 | 44.53384 | -79.02350 | 35585 ft | 417 kts | 218° |
| 2026-05-05 10:48 | 44.48503 | -79.06757 | 35583 ft | 417 kts | 218° |
| 2026-05-05 10:49 | 44.43632 | -79.11146 | 35578 ft | 416 kts | 218° |
| 2026-05-05 10:49 | 44.38763 | -79.15524 | 35580 ft | 416 kts | 218° |
| 2026-05-05 10:50 | 44.33951 | -79.19974 | 35576 ft | 412 kts | 222° |
| 2026-05-05 10:50 | 44.29673 | -79.25211 | 35586 ft | 407 kts | 230° |
| 2026-05-05 10:51 | 44.25889 | -79.31038 | 35596 ft | 405 kts | 231° |
| 2026-05-05 10:51 | 44.22141 | -79.36847 | 35589 ft | 406 kts | 231° |
| 2026-05-05 10:52 | 44.18357 | -79.42682 | 35603 ft | 406 kts | 231° |
| 2026-05-05 10:52 | 44.14565 | -79.48508 | 35595 ft | 406 kts | 231° |
| 2026-05-05 10:53 | 44.10771 | -79.54323 | 35593 ft | 405 kts | 231° |
| 2026-05-05 10:53 | 44.06975 | -79.60127 | 35594 ft | 406 kts | 231° |
| 2026-05-05 10:54 | 44.03169 | -79.65936 | 35591 ft | 406 kts | 231° |
| 2026-05-05 10:54 | 43.99358 | -79.71740 | 35593 ft | 407 kts | 231° |
| 2026-05-05 10:55 | 43.95540 | -79.77543 | 35560 ft | 407 kts | 231° |
| 2026-05-05 10:55 | 43.91716 | -79.83342 | 35593 ft | 408 kts | 231° |
| 2026-05-05 10:56 | 43.87885 | -79.89143 | 35600 ft | 408 kts | 230° |
| 2026-05-05 10:56 | 43.84050 | -79.94940 | 35597 ft | 408 kts | 230° |
| 2026-05-05 10:57 | 43.80216 | -80.00720 | 35592 ft | 408 kts | 230° |
| 2026-05-05 10:57 | 43.76376 | -80.06494 | 35597 ft | 407 kts | 231° |
| 2026-05-05 10:58 | 43.72531 | -80.12264 | 35604 ft | 408 kts | 231° |
| 2026-05-05 10:58 | 43.68683 | -80.18030 | 35618 ft | 409 kts | 230° |
| 2026-05-05 10:59 | 43.64821 | -80.23805 | 35610 ft | 409 kts | 230° |
| 2026-05-05 10:59 | 43.60952 | -80.29579 | 35578 ft | 410 kts | 230° |
| 2026-05-05 11:00 | 43.57082 | -80.35344 | 35601 ft | 410 kts | 230° |
| 2026-05-05 11:00 | 43.53209 | -80.41103 | 35617 ft | 410 kts | 230° |
| 2026-05-05 11:01 | 43.49325 | -80.46866 | 35610 ft | 410 kts | 230° |
| 2026-05-05 11:01 | 43.45434 | -80.52626 | 35610 ft | 411 kts | 230° |
| 2026-05-05 11:02 | 43.41563 | -80.58346 | 35607 ft | 411 kts | 230° |
| 2026-05-05 11:02 | 43.37661 | -80.64099 | 35624 ft | 411 kts | 230° |
| 2026-05-05 11:03 | 43.33753 | -80.69851 | 35632 ft | 412 kts | 230° |
| 2026-05-05 11:03 | 43.29844 | -80.75592 | 35629 ft | 412 kts | 230° |
| 2026-05-05 11:04 | 43.25928 | -80.81331 | 35602 ft | 412 kts | 230° |
| 2026-05-05 11:04 | 43.22011 | -80.87062 | 35630 ft | 412 kts | 230° |
| 2026-05-05 11:05 | 43.18088 | -80.92790 | 35650 ft | 412 kts | 230° |
| 2026-05-05 11:05 | 43.14161 | -80.98514 | 35640 ft | 413 kts | 230° |
| 2026-05-05 11:06 | 43.10223 | -81.04245 | 35650 ft | 413 kts | 231° |
| 2026-05-05 11:06 | 43.06937 | -81.10614 | 35634 ft | 409 kts | 242° |
| 2026-05-05 11:07 | 43.04496 | -81.17619 | 35642 ft | 408 kts | 251° |
| 2026-05-05 11:07 | 43.02669 | -81.24965 | 35649 ft | 409 kts | 251° |
| 2026-05-05 11:08 | 43.00852 | -81.32338 | 35653 ft | 410 kts | 251° |
| 2026-05-05 11:08 | 42.99008 | -81.39724 | 35654 ft | 411 kts | 251° |
| 2026-05-05 11:09 | 42.97143 | -81.47118 | 35640 ft | 412 kts | 251° |
| 2026-05-05 11:09 | 42.95267 | -81.54519 | 35644 ft | 413 kts | 251° |
| 2026-05-05 11:10 | 42.93386 | -81.61918 | 35647 ft | 413 kts | 251° |
| 2026-05-05 11:10 | 42.91498 | -81.69314 | 35637 ft | 413 kts | 251° |
| 2026-05-05 11:11 | 42.89608 | -81.76700 | 35647 ft | 413 kts | 251° |
| 2026-05-05 11:11 | 42.87714 | -81.84083 | 35649 ft | 413 kts | 251° |
| 2026-05-05 11:12 | 42.85816 | -81.91454 | 35656 ft | 413 kts | 251° |
| 2026-05-05 11:12 | 42.83904 | -81.98856 | 35653 ft | 413 kts | 251° |
| 2026-05-05 11:13 | 42.81992 | -82.06236 | 35654 ft | 413 kts | 251° |
| 2026-05-05 11:13 | 42.80088 | -82.13563 | 35660 ft | 413 kts | 251° |
| 2026-05-05 11:14 | 42.78170 | -82.20920 | 35657 ft | 413 kts | 251° |
| 2026-05-05 11:14 | 42.76248 | -82.28273 | 35650 ft | 413 kts | 251° |
| 2026-05-05 11:15 | 42.74319 | -82.35630 | 35652 ft | 412 kts | 251° |
| 2026-05-05 11:15 | 42.72392 | -82.42960 | 35672 ft | 412 kts | 251° |
| 2026-05-05 11:16 | 42.70454 | -82.50306 | 35649 ft | 413 kts | 251° |
| 2026-05-05 11:16 | 42.68498 | -82.57672 | 35650 ft | 412 kts | 251° |
| 2026-05-05 11:17 | 42.66548 | -82.64990 | 35640 ft | 412 kts | 251° |
| 2026-05-05 11:17 | 42.64592 | -82.72318 | 35636 ft | 412 kts | 251° |
| 2026-05-05 11:18 | 42.62635 | -82.79626 | 35651 ft | 412 kts | 251° |
| 2026-05-05 11:18 | 42.60669 | -82.86947 | 35640 ft | 413 kts | 251° |
| 2026-05-05 11:19 | 42.58698 | -82.94267 | 35637 ft | 413 kts | 251° |
| 2026-05-05 11:19 | 42.56725 | -83.01573 | 35691 ft | 412 kts | 251° |
| 2026-05-05 11:20 | 42.54746 | -83.08877 | 35692 ft | 412 kts | 251° |
| 2026-05-05 11:20 | 42.52764 | -83.16172 | 35712 ft | 412 kts | 251° |
| 2026-05-05 11:21 | 42.50778 | -83.23459 | 35692 ft | 412 kts | 251° |
| 2026-05-05 11:21 | 42.48785 | -83.30749 | 35701 ft | 412 kts | 251° |
| 2026-05-05 11:22 | 42.46790 | -83.38031 | 35697 ft | 412 kts | 251° |
| 2026-05-05 11:22 | 42.44789 | -83.45313 | 35698 ft | 412 kts | 251° |
| 2026-05-05 11:23 | 42.42785 | -83.52573 | 35674 ft | 412 kts | 250° |
| 2026-05-05 11:23 | 42.39956 | -83.59249 | 35710 ft | 417 kts | 237° |
| 2026-05-05 11:24 | 42.36046 | -83.65124 | 35705 ft | 424 kts | 226° |
| 2026-05-05 11:24 | 42.31523 | -83.70265 | 35708 ft | 425 kts | 225° |
| 2026-05-05 11:25 | 42.26974 | -83.75374 | 35700 ft | 425 kts | 225° |
| 2026-05-05 11:25 | 42.22444 | -83.80499 | 35676 ft | 425 kts | 225° |
| 2026-05-05 11:26 | 42.17923 | -83.85637 | 35691 ft | 425 kts | 225° |
| 2026-05-05 11:26 | 42.13399 | -83.90779 | 35704 ft | 426 kts | 225° |
| 2026-05-05 11:27 | 42.08868 | -83.95921 | 35724 ft | 426 kts | 226° |
| 2026-05-05 11:27 | 42.04330 | -84.01059 | 35725 ft | 427 kts | 226° |
| 2026-05-05 11:28 | 41.99788 | -84.06190 | 35727 ft | 426 kts | 226° |
| 2026-05-05 11:28 | 41.95244 | -84.11315 | 35743 ft | 427 kts | 226° |
| 2026-05-05 11:29 | 41.90692 | -84.16440 | 35739 ft | 427 kts | 226° |
| 2026-05-05 11:29 | 41.86899 | -84.20701 | 35744 ft | 428 kts | 225° |
| 2026-05-05 11:30 | 41.82338 | -84.25817 | 35730 ft | 428 kts | 226° |
| 2026-05-05 11:30 | 41.77768 | -84.30931 | 35741 ft | 428 kts | 226° |
| 2026-05-05 11:31 | 41.73190 | -84.36047 | 35729 ft | 429 kts | 226° |
| 2026-05-05 11:31 | 41.68605 | -84.41161 | 35736 ft | 429 kts | 226° |
| 2026-05-05 11:32 | 41.64018 | -84.46266 | 35694 ft | 429 kts | 226° |
| 2026-05-05 11:32 | 41.59428 | -84.51364 | 35721 ft | 429 kts | 226° |
| 2026-05-05 11:33 | 41.54835 | -84.56456 | 35721 ft | 429 kts | 226° |
| 2026-05-05 11:33 | 41.50236 | -84.61547 | 35728 ft | 429 kts | 226° |
| 2026-05-05 11:34 | 41.45637 | -84.66627 | 35744 ft | 430 kts | 226° |
| 2026-05-05 11:34 | 41.41030 | -84.71704 | 35739 ft | 429 kts | 226° |
| 2026-05-05 11:35 | 41.36427 | -84.76770 | 35757 ft | 429 kts | 226° |
| 2026-05-05 11:35 | 41.31822 | -84.81829 | 35767 ft | 429 kts | 226° |
| 2026-05-05 11:35 | 41.29516 | -84.84358 | 35612 ft | 432 kts | 226° |
| 2026-05-05 11:36 | 41.27166 | -84.86942 | 34774 ft | 441 kts | 226° |
| 2026-05-05 11:36 | 41.24799 | -84.89533 | 34002 ft | 441 kts | 226° |
| 2026-05-05 11:36 | 41.22434 | -84.92117 | 33112 ft | 439 kts | 227° |
| 2026-05-05 11:36 | 41.20098 | -84.94661 | 32513 ft | 432 kts | 226° |
| 2026-05-05 11:37 | 41.17785 | -84.97180 | 31888 ft | 426 kts | 226° |
| 2026-05-05 11:37 | 41.15510 | -84.99657 | 31331 ft | 422 kts | 226° |
| 2026-05-05 11:37 | 41.13254 | -85.02116 | 30772 ft | 417 kts | 226° |
| 2026-05-05 11:37 | 41.11019 | -85.04550 | 30207 ft | 414 kts | 226° |
| 2026-05-05 11:38 | 41.08800 | -85.06964 | 29614 ft | 411 kts | 226° |
| 2026-05-05 11:38 | 41.06597 | -85.09361 | 28980 ft | 408 kts | 226° |
| 2026-05-05 11:38 | 41.04413 | -85.11735 | 28422 ft | 404 kts | 226° |
| 2026-05-05 11:38 | 41.02252 | -85.14080 | 27839 ft | 400 kts | 226° |
| 2026-05-05 11:39 | 41.00108 | -85.16402 | 27317 ft | 396 kts | 226° |
| 2026-05-05 11:39 | 40.97851 | -85.18485 | 26761 ft | 401 kts | 215° |
| 2026-05-05 11:39 | 40.95193 | -85.19736 | 26272 ft | 410 kts | 201° |
| 2026-05-05 11:39 | 40.92402 | -85.20484 | 25779 ft | 409 kts | 200° |
| 2026-05-05 11:40 | 40.89652 | -85.21199 | 25280 ft | 407 kts | 200° |
| 2026-05-05 11:40 | 40.86882 | -85.21930 | 24775 ft | 405 kts | 200° |
| 2026-05-05 11:40 | 40.84128 | -85.22673 | 24275 ft | 403 kts | 200° |
| 2026-05-05 11:40 | 40.81390 | -85.23426 | 23777 ft | 401 kts | 200° |
| 2026-05-05 11:41 | 40.78662 | -85.24184 | 23245 ft | 400 kts | 200° |
| 2026-05-05 11:41 | 40.75947 | -85.24942 | 22666 ft | 398 kts | 200° |
| 2026-05-05 11:41 | 40.73249 | -85.25695 | 22145 ft | 395 kts | 199° |
| 2026-05-05 11:41 | 40.70571 | -85.26443 | 21677 ft | 392 kts | 199° |
| 2026-05-05 11:42 | 40.67914 | -85.27184 | 21212 ft | 389 kts | 199° |
| 2026-05-05 11:42 | 40.65281 | -85.27918 | 20746 ft | 386 kts | 199° |
| 2026-05-05 11:42 | 40.62664 | -85.28646 | 20279 ft | 383 kts | 199° |
| 2026-05-05 11:42 | 40.60067 | -85.29368 | 19836 ft | 380 kts | 199° |
| 2026-05-05 11:43 | 40.57504 | -85.30078 | 19594 ft | 372 kts | 199° |
| 2026-05-05 11:43 | 40.54981 | -85.30776 | 19245 ft | 369 kts | 199° |
| 2026-05-05 11:43 | 40.52472 | -85.31473 | 18877 ft | 368 kts | 199° |
| 2026-05-05 11:43 | 40.49969 | -85.32169 | 18505 ft | 367 kts | 198° |
| 2026-05-05 11:44 | 40.47476 | -85.32861 | 18136 ft | 366 kts | 198° |
| 2026-05-05 11:44 | 40.44982 | -85.33553 | 17717 ft | 365 kts | 198° |
| 2026-05-05 11:44 | 40.42504 | -85.34239 | 17314 ft | 363 kts | 198° |
| 2026-05-05 11:44 | 40.40035 | -85.34921 | 16914 ft | 362 kts | 198° |
| 2026-05-05 11:45 | 40.37579 | -85.35600 | 16526 ft | 360 kts | 198° |
| 2026-05-05 11:45 | 40.35137 | -85.36275 | 16173 ft | 358 kts | 198° |
| 2026-05-05 11:45 | 40.32708 | -85.36945 | 15811 ft | 356 kts | 198° |
| 2026-05-05 11:45 | 40.30290 | -85.37612 | 15450 ft | 354 kts | 197° |
| 2026-05-05 11:46 | 40.27881 | -85.38276 | 15082 ft | 353 kts | 197° |
| 2026-05-05 11:46 | 40.25540 | -85.39065 | 14704 ft | 341 kts | 208° |
| 2026-05-05 11:46 | 40.23606 | -85.40702 | 14376 ft | 330 kts | 226° |
| 2026-05-05 11:46 | 40.22123 | -85.42969 | 14041 ft | 325 kts | 239° |
| 2026-05-05 11:47 | 40.20996 | -85.45516 | 13713 ft | 323 kts | 243° |
| 2026-05-05 11:47 | 40.19916 | -85.48098 | 13355 ft | 324 kts | 243° |
| 2026-05-05 11:47 | 40.18835 | -85.50682 | 12988 ft | 324 kts | 243° |
| 2026-05-05 11:47 | 40.17744 | -85.53261 | 12665 ft | 324 kts | 242° |
| 2026-05-05 11:48 | 40.16721 | -85.55654 | 12341 ft | 324 kts | 242° |
| 2026-05-05 11:48 | 40.15616 | -85.58217 | 12000 ft | 324 kts | 242° |
| 2026-05-05 11:48 | 40.14511 | -85.60773 | 11673 ft | 321 kts | 242° |
| 2026-05-05 11:49 | 40.13420 | -85.63299 | 11309 ft | 316 kts | 242° |
| 2026-05-05 11:49 | 40.12359 | -85.65780 | 10990 ft | 310 kts | 242° |
| 2026-05-05 11:49 | 40.11321 | -85.68213 | 10676 ft | 303 kts | 242° |
| 2026-05-05 11:49 | 40.10305 | -85.70592 | 10375 ft | 297 kts | 242° |
| 2026-05-05 11:50 | 40.09308 | -85.72925 | 10091 ft | 291 kts | 242° |
| 2026-05-05 11:50 | 40.08335 | -85.75199 | 9883 ft | 281 kts | 242° |
| 2026-05-05 11:50 | 40.07395 | -85.77390 | 9689 ft | 272 kts | 242° |
| 2026-05-05 11:50 | 40.06487 | -85.79506 | 9471 ft | 264 kts | 242° |
| 2026-05-05 11:51 | 40.05581 | -85.81592 | 8977 ft | 260 kts | 240° |
| 2026-05-05 11:51 | 40.04645 | -85.83544 | 8709 ft | 252 kts | 239° |
| 2026-05-05 11:51 | 40.03701 | -85.85474 | 8455 ft | 253 kts | 239° |
| 2026-05-05 11:51 | 40.02730 | -85.87387 | 8192 ft | 253 kts | 233° |
| 2026-05-05 11:52 | 40.01564 | -85.89101 | 7968 ft | 253 kts | 228° |
| 2026-05-05 11:52 | 40.00351 | -85.90718 | 7720 ft | 253 kts | 227° |
| 2026-05-05 11:52 | 39.99101 | -85.92373 | 7462 ft | 253 kts | 227° |
| 2026-05-05 11:52 | 39.97891 | -85.93988 | 7209 ft | 253 kts | 228° |
| 2026-05-05 11:53 | 39.96651 | -85.95653 | 6963 ft | 253 kts | 228° |
| 2026-05-05 11:53 | 39.95429 | -85.97303 | 6690 ft | 252 kts | 228° |
| 2026-05-05 11:53 | 39.94228 | -85.98931 | 6436 ft | 246 kts | 228° |
| 2026-05-05 11:53 | 39.93054 | -86.00524 | 6183 ft | 242 kts | 228° |
| 2026-05-05 11:54 | 39.91893 | -86.02104 | 5949 ft | 241 kts | 229° |
| 2026-05-05 11:54 | 39.90731 | -86.03684 | 5695 ft | 241 kts | 229° |
| 2026-05-05 11:54 | 39.89603 | -86.05218 | 5476 ft | 235 kts | 229° |
| 2026-05-05 11:54 | 39.88482 | -86.06741 | 5247 ft | 230 kts | 229° |
| 2026-05-05 11:55 | 39.87375 | -86.08217 | 4991 ft | 226 kts | 228° |
| 2026-05-05 11:55 | 39.86259 | -86.09654 | 4706 ft | 225 kts | 228° |
| 2026-05-05 11:55 | 39.85150 | -86.11073 | 4418 ft | 223 kts | 229° |
| 2026-05-05 11:55 | 39.84055 | -86.12481 | 4102 ft | 219 kts | 228° |
| 2026-05-05 11:56 | 39.82985 | -86.13852 | 3828 ft | 214 kts | 228° |
| 2026-05-05 11:56 | 39.81933 | -86.15200 | 3545 ft | 209 kts | 228° |
| 2026-05-05 11:56 | 39.80914 | -86.16509 | 3255 ft | 203 kts | 227° |
| 2026-05-05 11:56 | 39.79921 | -86.17782 | 2988 ft | 197 kts | 227° |
| 2026-05-05 11:57 | 39.78976 | -86.18994 | 2780 ft | 184 kts | 227° |
| 2026-05-05 11:57 | 39.78113 | -86.20097 | 2536 ft | 165 kts | 227° |
| 2026-05-05 11:57 | 39.77344 | -86.21083 | 2313 ft | 147 kts | 227° |
| 2026-05-05 11:57 | 39.76656 | -86.21965 | 2121 ft | 131 kts | 226° |
| 2026-05-05 11:58 | 39.75997 | -86.22814 | 1978 ft | 137 kts | 226° |
| 2026-05-05 11:58 | 39.75304 | -86.23695 | 1767 ft | 139 kts | 224° |
| 2026-05-05 11:58 | 39.74609 | -86.24591 | 1548 ft | 143 kts | 223° |
| 2026-05-05 11:58 | 39.73920 | -86.25472 | 1322 ft | 137 kts | 222° |
| 2026-05-05 11:59 | 39.73219 | -86.26358 | 1152 ft | 142 kts | 221° |
| 2026-05-05 11:59 | 39.72505 | -86.27283 | 962 ft | 148 kts | 223° |
| 2026-05-05 11:59 | 39.71774 | -86.28209 | 795 ft | 143 kts | 224° |
| 2026-05-05 11:59 | 39.71147 | -86.29010 | 789 ft | 104 kts | 225° |
| 2026-05-05 12:00 | 39.70763 | -86.29497 | 786 ft | 51 kts | 224° |
| 2026-05-05 12:00 | 39.70598 | -86.29640 | 788 ft | 20 kts | 202° |
| 2026-05-05 12:00 | 39.70465 | -86.29687 | 786 ft | 19 kts | 183° |
| 2026-05-05 12:00 | 39.70431 | -86.29672 | 786 ft | 5 kts | 141° |
| 2026-05-05 12:01 | 39.70452 | -86.29595 | 786 ft | 17 kts | 46° |
| 2026-05-05 12:01 | 39.70590 | -86.29481 | 786 ft | 27 kts | 23° |
| 2026-05-05 12:01 | 39.70738 | -86.29334 | 786 ft | 27 kts | 45° |
| 2026-05-05 12:01 | 39.70869 | -86.29163 | 786 ft | 27 kts | 45° |
| 2026-05-05 12:02 | 39.71002 | -86.28990 | 786 ft | 27 kts | 45° |
| 2026-05-05 12:02 | 39.71136 | -86.28814 | 786 ft | 27 kts | 45° |
| 2026-05-05 12:02 | 39.71274 | -86.28648 | 786 ft | 27 kts | 42° |
| 2026-05-05 12:02 | 39.71408 | -86.28478 | 786 ft | 27 kts | 45° |
| 2026-05-05 12:03 | 39.71459 | -86.28349 | 786 ft | 11 kts | 113° |
| 2026-05-05 12:03 | 39.71426 | -86.28262 | 786 ft | 11 kts | 109° |
| 2026-05-05 12:03 | 39.71385 | -86.28186 | 786 ft | 10 kts | 135° |
| 2026-05-05 12:03 | 39.71364 | -86.28159 | 786 ft | 1 kts | 134° |
| 2026-05-05 12:04 | 39.71363 | -86.28158 | 786 ft | 0 kts | 135° |